<?xml version="1.0" encoding="UTF-8" standalone="no" ?>
<gpx xmlns="http://www.topografix.com/GPX/1/1" xmlns:xsi="http://www.w3.org/2001/XMLSchema-instance" xsi:schemaLocation="http://www.topografix.com/GPX/1/1 http://www.topografix.com/GPX/1/1/gpx.xsd" version="1.1" creator="VisuGPX - https://www.visugpx.com">
  <metadata>
    <name>83-Me-Les Arcs</name>
    <desc><![CDATA[83-Me-Les Arcs : la source Catin
2020-02-19]]></desc>
  </metadata>
  <trk>
    <name><![CDATA[2020-02-19-M-Les Arcs]]></name>
    <trkseg>
      <trkpt lat="43.43431" lon="6.51073">
        <ele>62.9</ele>
        <time>2020-02-19T12:56:07Z</time>
      </trkpt>
      <trkpt lat="43.43421" lon="6.51072">
        <ele>62.5</ele>
        <time>2020-02-19T12:58:15Z</time>
      </trkpt>
      <trkpt lat="43.43421" lon="6.51072">
        <ele>62.5</ele>
        <time>2020-02-19T12:58:16Z</time>
      </trkpt>
      <trkpt lat="43.43406" lon="6.51065">
        <ele>60</ele>
        <time>2020-02-19T12:58:48Z</time>
      </trkpt>
      <trkpt lat="43.43398" lon="6.51061">
        <ele>58.7</ele>
        <time>2020-02-19T12:58:58Z</time>
      </trkpt>
      <trkpt lat="43.43391" lon="6.51053">
        <ele>56</ele>
        <time>2020-02-19T12:59:11Z</time>
      </trkpt>
      <trkpt lat="43.43382" lon="6.51051">
        <ele>54.5</ele>
        <time>2020-02-19T12:59:25Z</time>
      </trkpt>
      <trkpt lat="43.43381" lon="6.51052">
        <ele>54.5</ele>
        <time>2020-02-19T12:59:26Z</time>
      </trkpt>
      <trkpt lat="43.43365" lon="6.51055">
        <ele>54.2</ele>
        <time>2020-02-19T12:59:43Z</time>
      </trkpt>
      <trkpt lat="43.43357" lon="6.51057">
        <ele>54.1</ele>
        <time>2020-02-19T12:59:57Z</time>
      </trkpt>
      <trkpt lat="43.43348" lon="6.51057">
        <ele>53.7</ele>
        <time>2020-02-19T13:00:09Z</time>
      </trkpt>
      <trkpt lat="43.43341" lon="6.5105">
        <ele>53.7</ele>
        <time>2020-02-19T13:00:30Z</time>
      </trkpt>
      <trkpt lat="43.4334" lon="6.5105">
        <ele>53.7</ele>
        <time>2020-02-19T13:00:31Z</time>
      </trkpt>
      <trkpt lat="43.43325" lon="6.51048">
        <ele>53.8</ele>
        <time>2020-02-19T13:00:53Z</time>
      </trkpt>
      <trkpt lat="43.43316" lon="6.51049">
        <ele>53.9</ele>
        <time>2020-02-19T13:01:02Z</time>
      </trkpt>
      <trkpt lat="43.43308" lon="6.51053">
        <ele>53.5</ele>
        <time>2020-02-19T13:01:12Z</time>
      </trkpt>
      <trkpt lat="43.43299" lon="6.51051">
        <ele>54.3</ele>
        <time>2020-02-19T13:01:26Z</time>
      </trkpt>
      <trkpt lat="43.43291" lon="6.51052">
        <ele>54.2</ele>
        <time>2020-02-19T13:01:46Z</time>
      </trkpt>
      <trkpt lat="43.4329" lon="6.51052">
        <ele>54.3</ele>
        <time>2020-02-19T13:01:47Z</time>
      </trkpt>
      <trkpt lat="43.43274" lon="6.51054">
        <ele>56.4</ele>
        <time>2020-02-19T13:02:45Z</time>
      </trkpt>
      <trkpt lat="43.43267" lon="6.5106">
        <ele>56.7</ele>
        <time>2020-02-19T13:03:02Z</time>
      </trkpt>
      <trkpt lat="43.43266" lon="6.51061">
        <ele>56.7</ele>
        <time>2020-02-19T13:03:03Z</time>
      </trkpt>
      <trkpt lat="43.43251" lon="6.51069">
        <ele>57.4</ele>
        <time>2020-02-19T13:03:29Z</time>
      </trkpt>
      <trkpt lat="43.43246" lon="6.51059">
        <ele>59.6</ele>
        <time>2020-02-19T13:03:56Z</time>
      </trkpt>
      <trkpt lat="43.43241" lon="6.51049">
        <ele>61.9</ele>
        <time>2020-02-19T13:04:41Z</time>
      </trkpt>
      <trkpt lat="43.4324" lon="6.51049">
        <ele>61.9</ele>
        <time>2020-02-19T13:04:42Z</time>
      </trkpt>
      <trkpt lat="43.43224" lon="6.51043">
        <ele>61.8</ele>
        <time>2020-02-19T13:05:03Z</time>
      </trkpt>
      <trkpt lat="43.43215" lon="6.51041">
        <ele>61.6</ele>
        <time>2020-02-19T13:05:14Z</time>
      </trkpt>
      <trkpt lat="43.43207" lon="6.51039">
        <ele>62.2</ele>
        <time>2020-02-19T13:05:24Z</time>
      </trkpt>
      <trkpt lat="43.43198" lon="6.51038">
        <ele>62.1</ele>
        <time>2020-02-19T13:05:34Z</time>
      </trkpt>
      <trkpt lat="43.4319" lon="6.51035">
        <ele>62.1</ele>
        <time>2020-02-19T13:05:45Z</time>
      </trkpt>
      <trkpt lat="43.4319" lon="6.51035">
        <ele>62.1</ele>
        <time>2020-02-19T13:05:46Z</time>
      </trkpt>
      <trkpt lat="43.43181" lon="6.51054">
        <ele>63.9</ele>
        <time>2020-02-19T13:06:16Z</time>
      </trkpt>
      <trkpt lat="43.43176" lon="6.51064">
        <ele>64</ele>
        <time>2020-02-19T13:06:22Z</time>
      </trkpt>
      <trkpt lat="43.43169" lon="6.51071">
        <ele>64.6</ele>
        <time>2020-02-19T13:06:29Z</time>
      </trkpt>
      <trkpt lat="43.43162" lon="6.51079">
        <ele>65.6</ele>
        <time>2020-02-19T13:06:37Z</time>
      </trkpt>
      <trkpt lat="43.43155" lon="6.51084">
        <ele>66.3</ele>
        <time>2020-02-19T13:06:44Z</time>
      </trkpt>
      <trkpt lat="43.43148" lon="6.51092">
        <ele>66.8</ele>
        <time>2020-02-19T13:06:52Z</time>
      </trkpt>
      <trkpt lat="43.43148" lon="6.51093">
        <ele>66.9</ele>
        <time>2020-02-19T13:06:53Z</time>
      </trkpt>
      <trkpt lat="43.43136" lon="6.51108">
        <ele>67.9</ele>
        <time>2020-02-19T13:07:05Z</time>
      </trkpt>
      <trkpt lat="43.43129" lon="6.51113">
        <ele>68.9</ele>
        <time>2020-02-19T13:07:13Z</time>
      </trkpt>
      <trkpt lat="43.4312" lon="6.51117">
        <ele>70</ele>
        <time>2020-02-19T13:07:24Z</time>
      </trkpt>
      <trkpt lat="43.43113" lon="6.51123">
        <ele>70.6</ele>
        <time>2020-02-19T13:07:31Z</time>
      </trkpt>
      <trkpt lat="43.43105" lon="6.51127">
        <ele>71.1</ele>
        <time>2020-02-19T13:07:37Z</time>
      </trkpt>
      <trkpt lat="43.43096" lon="6.51129">
        <ele>71</ele>
        <time>2020-02-19T13:07:43Z</time>
      </trkpt>
      <trkpt lat="43.43088" lon="6.51132">
        <ele>71.2</ele>
        <time>2020-02-19T13:07:50Z</time>
      </trkpt>
      <trkpt lat="43.4308" lon="6.51133">
        <ele>71</ele>
        <time>2020-02-19T13:07:57Z</time>
      </trkpt>
      <trkpt lat="43.43078" lon="6.51133">
        <ele>71</ele>
        <time>2020-02-19T13:08:00Z</time>
      </trkpt>
      <trkpt lat="43.43064" lon="6.51131">
        <ele>71</ele>
        <time>2020-02-19T13:08:15Z</time>
      </trkpt>
      <trkpt lat="43.43058" lon="6.51125">
        <ele>71</ele>
        <time>2020-02-19T13:08:21Z</time>
      </trkpt>
      <trkpt lat="43.4305" lon="6.51119">
        <ele>71</ele>
        <time>2020-02-19T13:08:29Z</time>
      </trkpt>
      <trkpt lat="43.43042" lon="6.51115">
        <ele>70.6</ele>
        <time>2020-02-19T13:08:38Z</time>
      </trkpt>
      <trkpt lat="43.43035" lon="6.51107">
        <ele>70.9</ele>
        <time>2020-02-19T13:08:47Z</time>
      </trkpt>
      <trkpt lat="43.43027" lon="6.51104">
        <ele>71.1</ele>
        <time>2020-02-19T13:08:57Z</time>
      </trkpt>
      <trkpt lat="43.4302" lon="6.5111">
        <ele>71.4</ele>
        <time>2020-02-19T13:09:05Z</time>
      </trkpt>
      <trkpt lat="43.4302" lon="6.51112">
        <ele>71.4</ele>
        <time>2020-02-19T13:09:06Z</time>
      </trkpt>
      <trkpt lat="43.43008" lon="6.51127">
        <ele>71.7</ele>
        <time>2020-02-19T13:09:18Z</time>
      </trkpt>
      <trkpt lat="43.43005" lon="6.51137">
        <ele>72</ele>
        <time>2020-02-19T13:09:29Z</time>
      </trkpt>
      <trkpt lat="43.43004" lon="6.51148">
        <ele>72.4</ele>
        <time>2020-02-19T13:09:37Z</time>
      </trkpt>
      <trkpt lat="43.43002" lon="6.51159">
        <ele>73.1</ele>
        <time>2020-02-19T13:09:45Z</time>
      </trkpt>
      <trkpt lat="43.42996" lon="6.51167">
        <ele>73.2</ele>
        <time>2020-02-19T13:09:49Z</time>
      </trkpt>
      <trkpt lat="43.42992" lon="6.51177">
        <ele>73.2</ele>
        <time>2020-02-19T13:09:58Z</time>
      </trkpt>
      <trkpt lat="43.42986" lon="6.51186">
        <ele>73.7</ele>
        <time>2020-02-19T13:10:07Z</time>
      </trkpt>
      <trkpt lat="43.42985" lon="6.51187">
        <ele>73.8</ele>
        <time>2020-02-19T13:10:08Z</time>
      </trkpt>
      <trkpt lat="43.4298" lon="6.51207">
        <ele>74.9</ele>
        <time>2020-02-19T13:10:26Z</time>
      </trkpt>
      <trkpt lat="43.42975" lon="6.51216">
        <ele>75.8</ele>
        <time>2020-02-19T13:10:34Z</time>
      </trkpt>
      <trkpt lat="43.42968" lon="6.51223">
        <ele>76.2</ele>
        <time>2020-02-19T13:10:40Z</time>
      </trkpt>
      <trkpt lat="43.42961" lon="6.51229">
        <ele>76.5</ele>
        <time>2020-02-19T13:10:44Z</time>
      </trkpt>
      <trkpt lat="43.42955" lon="6.51238">
        <ele>76.8</ele>
        <time>2020-02-19T13:10:51Z</time>
      </trkpt>
      <trkpt lat="43.42951" lon="6.51248">
        <ele>76.9</ele>
        <time>2020-02-19T13:11:01Z</time>
      </trkpt>
      <trkpt lat="43.42946" lon="6.51258">
        <ele>77.2</ele>
        <time>2020-02-19T13:11:07Z</time>
      </trkpt>
      <trkpt lat="43.42941" lon="6.51267">
        <ele>77.8</ele>
        <time>2020-02-19T13:11:15Z</time>
      </trkpt>
      <trkpt lat="43.42941" lon="6.51268">
        <ele>77.8</ele>
        <time>2020-02-19T13:11:16Z</time>
      </trkpt>
      <trkpt lat="43.42933" lon="6.51287">
        <ele>78.4</ele>
        <time>2020-02-19T13:11:32Z</time>
      </trkpt>
      <trkpt lat="43.42927" lon="6.51295">
        <ele>78.3</ele>
        <time>2020-02-19T13:11:41Z</time>
      </trkpt>
      <trkpt lat="43.42922" lon="6.51303">
        <ele>78.5</ele>
        <time>2020-02-19T13:11:50Z</time>
      </trkpt>
      <trkpt lat="43.42918" lon="6.51314">
        <ele>78.8</ele>
        <time>2020-02-19T13:11:58Z</time>
      </trkpt>
      <trkpt lat="43.42914" lon="6.51322">
        <ele>79.4</ele>
        <time>2020-02-19T13:12:03Z</time>
      </trkpt>
      <trkpt lat="43.42911" lon="6.51334">
        <ele>80.9</ele>
        <time>2020-02-19T13:12:11Z</time>
      </trkpt>
      <trkpt lat="43.42909" lon="6.51345">
        <ele>82.4</ele>
        <time>2020-02-19T13:12:21Z</time>
      </trkpt>
      <trkpt lat="43.42909" lon="6.51346">
        <ele>82.6</ele>
        <time>2020-02-19T13:12:22Z</time>
      </trkpt>
      <trkpt lat="43.429" lon="6.51364">
        <ele>84.4</ele>
        <time>2020-02-19T13:12:37Z</time>
      </trkpt>
      <trkpt lat="43.42894" lon="6.51373">
        <ele>84.7</ele>
        <time>2020-02-19T13:12:45Z</time>
      </trkpt>
      <trkpt lat="43.42888" lon="6.51381">
        <ele>85.8</ele>
        <time>2020-02-19T13:12:52Z</time>
      </trkpt>
      <trkpt lat="43.42881" lon="6.51389">
        <ele>86.2</ele>
        <time>2020-02-19T13:12:57Z</time>
      </trkpt>
      <trkpt lat="43.42876" lon="6.51397">
        <ele>86.5</ele>
        <time>2020-02-19T13:13:04Z</time>
      </trkpt>
      <trkpt lat="43.42872" lon="6.51406">
        <ele>87.1</ele>
        <time>2020-02-19T13:13:10Z</time>
      </trkpt>
      <trkpt lat="43.42867" lon="6.51415">
        <ele>88.1</ele>
        <time>2020-02-19T13:13:19Z</time>
      </trkpt>
      <trkpt lat="43.42862" lon="6.51425">
        <ele>88.9</ele>
        <time>2020-02-19T13:13:26Z</time>
      </trkpt>
      <trkpt lat="43.42862" lon="6.51426">
        <ele>88.9</ele>
        <time>2020-02-19T13:13:27Z</time>
      </trkpt>
      <trkpt lat="43.42857" lon="6.51446">
        <ele>88.7</ele>
        <time>2020-02-19T13:13:41Z</time>
      </trkpt>
      <trkpt lat="43.42856" lon="6.51457">
        <ele>88.7</ele>
        <time>2020-02-19T13:13:49Z</time>
      </trkpt>
      <trkpt lat="43.42854" lon="6.51468">
        <ele>88.7</ele>
        <time>2020-02-19T13:13:58Z</time>
      </trkpt>
      <trkpt lat="43.42851" lon="6.51479">
        <ele>89.1</ele>
        <time>2020-02-19T13:14:05Z</time>
      </trkpt>
      <trkpt lat="43.42846" lon="6.5149">
        <ele>89.6</ele>
        <time>2020-02-19T13:14:14Z</time>
      </trkpt>
      <trkpt lat="43.42841" lon="6.51499">
        <ele>90</ele>
        <time>2020-02-19T13:14:22Z</time>
      </trkpt>
      <trkpt lat="43.42834" lon="6.51506">
        <ele>91.4</ele>
        <time>2020-02-19T13:14:32Z</time>
      </trkpt>
      <trkpt lat="43.42833" lon="6.51506">
        <ele>91.4</ele>
        <time>2020-02-19T13:14:33Z</time>
      </trkpt>
      <trkpt lat="43.42818" lon="6.51514">
        <ele>93.2</ele>
        <time>2020-02-19T13:14:53Z</time>
      </trkpt>
      <trkpt lat="43.42812" lon="6.51521">
        <ele>93.5</ele>
        <time>2020-02-19T13:15:00Z</time>
      </trkpt>
      <trkpt lat="43.42806" lon="6.5153">
        <ele>94.7</ele>
        <time>2020-02-19T13:15:10Z</time>
      </trkpt>
      <trkpt lat="43.42802" lon="6.5154">
        <ele>95.5</ele>
        <time>2020-02-19T13:15:18Z</time>
      </trkpt>
      <trkpt lat="43.42799" lon="6.51551">
        <ele>95.6</ele>
        <time>2020-02-19T13:15:30Z</time>
      </trkpt>
      <trkpt lat="43.42797" lon="6.51562">
        <ele>96.2</ele>
        <time>2020-02-19T13:15:39Z</time>
      </trkpt>
      <trkpt lat="43.42797" lon="6.51563">
        <ele>96.4</ele>
        <time>2020-02-19T13:15:40Z</time>
      </trkpt>
      <trkpt lat="43.42797" lon="6.51587">
        <ele>97.7</ele>
        <time>2020-02-19T13:15:54Z</time>
      </trkpt>
      <trkpt lat="43.42794" lon="6.51597">
        <ele>98</ele>
        <time>2020-02-19T13:16:00Z</time>
      </trkpt>
      <trkpt lat="43.42789" lon="6.51607">
        <ele>98.3</ele>
        <time>2020-02-19T13:16:04Z</time>
      </trkpt>
      <trkpt lat="43.42786" lon="6.51616">
        <ele>98.6</ele>
        <time>2020-02-19T13:16:09Z</time>
      </trkpt>
      <trkpt lat="43.42783" lon="6.51627">
        <ele>99.1</ele>
        <time>2020-02-19T13:16:17Z</time>
      </trkpt>
      <trkpt lat="43.42776" lon="6.51635">
        <ele>100</ele>
        <time>2020-02-19T13:16:27Z</time>
      </trkpt>
      <trkpt lat="43.42769" lon="6.51642">
        <ele>100.6</ele>
        <time>2020-02-19T13:16:35Z</time>
      </trkpt>
      <trkpt lat="43.42762" lon="6.5165">
        <ele>100.9</ele>
        <time>2020-02-19T13:16:44Z</time>
      </trkpt>
      <trkpt lat="43.42762" lon="6.51651">
        <ele>100.9</ele>
        <time>2020-02-19T13:16:45Z</time>
      </trkpt>
      <trkpt lat="43.42747" lon="6.51661">
        <ele>103</ele>
        <time>2020-02-19T13:17:03Z</time>
      </trkpt>
      <trkpt lat="43.42742" lon="6.5167">
        <ele>103.7</ele>
        <time>2020-02-19T13:17:10Z</time>
      </trkpt>
      <trkpt lat="43.4274" lon="6.51682">
        <ele>104.5</ele>
        <time>2020-02-19T13:17:22Z</time>
      </trkpt>
      <trkpt lat="43.4274" lon="6.51694">
        <ele>105.4</ele>
        <time>2020-02-19T13:17:29Z</time>
      </trkpt>
      <trkpt lat="43.42738" lon="6.51705">
        <ele>106.1</ele>
        <time>2020-02-19T13:17:34Z</time>
      </trkpt>
      <trkpt lat="43.4274" lon="6.51716">
        <ele>106</ele>
        <time>2020-02-19T13:17:42Z</time>
      </trkpt>
      <trkpt lat="43.42745" lon="6.51726">
        <ele>105.7</ele>
        <time>2020-02-19T13:17:51Z</time>
      </trkpt>
      <trkpt lat="43.42746" lon="6.51727">
        <ele>105.7</ele>
        <time>2020-02-19T13:17:52Z</time>
      </trkpt>
      <trkpt lat="43.42755" lon="6.51744">
        <ele>104.4</ele>
        <time>2020-02-19T13:18:07Z</time>
      </trkpt>
      <trkpt lat="43.42761" lon="6.51752">
        <ele>104.7</ele>
        <time>2020-02-19T13:18:15Z</time>
      </trkpt>
      <trkpt lat="43.42766" lon="6.51762">
        <ele>105.4</ele>
        <time>2020-02-19T13:18:23Z</time>
      </trkpt>
      <trkpt lat="43.42772" lon="6.5177">
        <ele>106.9</ele>
        <time>2020-02-19T13:18:35Z</time>
      </trkpt>
      <trkpt lat="43.42779" lon="6.51776">
        <ele>108</ele>
        <time>2020-02-19T13:18:43Z</time>
      </trkpt>
      <trkpt lat="43.42785" lon="6.51783">
        <ele>109.2</ele>
        <time>2020-02-19T13:18:51Z</time>
      </trkpt>
      <trkpt lat="43.42791" lon="6.51791">
        <ele>110.1</ele>
        <time>2020-02-19T13:19:00Z</time>
      </trkpt>
      <trkpt lat="43.42792" lon="6.51793">
        <ele>110.2</ele>
        <time>2020-02-19T13:19:01Z</time>
      </trkpt>
      <trkpt lat="43.42801" lon="6.5181">
        <ele>111.4</ele>
        <time>2020-02-19T13:19:14Z</time>
      </trkpt>
      <trkpt lat="43.42804" lon="6.51821">
        <ele>112.7</ele>
        <time>2020-02-19T13:19:21Z</time>
      </trkpt>
      <trkpt lat="43.42807" lon="6.51831">
        <ele>113.5</ele>
        <time>2020-02-19T13:19:29Z</time>
      </trkpt>
      <trkpt lat="43.42809" lon="6.51842">
        <ele>113.9</ele>
        <time>2020-02-19T13:19:36Z</time>
      </trkpt>
      <trkpt lat="43.42809" lon="6.51854">
        <ele>114.9</ele>
        <time>2020-02-19T13:19:44Z</time>
      </trkpt>
      <trkpt lat="43.4281" lon="6.51866">
        <ele>115.5</ele>
        <time>2020-02-19T13:19:52Z</time>
      </trkpt>
      <trkpt lat="43.42811" lon="6.51877">
        <ele>116.2</ele>
        <time>2020-02-19T13:20:00Z</time>
      </trkpt>
      <trkpt lat="43.42814" lon="6.51888">
        <ele>117.4</ele>
        <time>2020-02-19T13:20:08Z</time>
      </trkpt>
      <trkpt lat="43.42815" lon="6.5189">
        <ele>117.6</ele>
        <time>2020-02-19T13:20:09Z</time>
      </trkpt>
      <trkpt lat="43.42821" lon="6.5191">
        <ele>119</ele>
        <time>2020-02-19T13:20:23Z</time>
      </trkpt>
      <trkpt lat="43.42822" lon="6.51922">
        <ele>119.5</ele>
        <time>2020-02-19T13:20:30Z</time>
      </trkpt>
      <trkpt lat="43.42823" lon="6.51934">
        <ele>120.2</ele>
        <time>2020-02-19T13:20:39Z</time>
      </trkpt>
      <trkpt lat="43.42824" lon="6.51945">
        <ele>121.2</ele>
        <time>2020-02-19T13:20:48Z</time>
      </trkpt>
      <trkpt lat="43.42823" lon="6.51958">
        <ele>122.9</ele>
        <time>2020-02-19T13:20:58Z</time>
      </trkpt>
      <trkpt lat="43.42826" lon="6.51969">
        <ele>124.1</ele>
        <time>2020-02-19T13:21:08Z</time>
      </trkpt>
      <trkpt lat="43.42828" lon="6.5198">
        <ele>124.9</ele>
        <time>2020-02-19T13:21:14Z</time>
      </trkpt>
      <trkpt lat="43.42828" lon="6.51981">
        <ele>125</ele>
        <time>2020-02-19T13:21:15Z</time>
      </trkpt>
      <trkpt lat="43.42832" lon="6.52001">
        <ele>126.8</ele>
        <time>2020-02-19T13:21:26Z</time>
      </trkpt>
      <trkpt lat="43.42833" lon="6.52013">
        <ele>126.8</ele>
        <time>2020-02-19T13:21:33Z</time>
      </trkpt>
      <trkpt lat="43.42836" lon="6.52025">
        <ele>127.4</ele>
        <time>2020-02-19T13:21:40Z</time>
      </trkpt>
      <trkpt lat="43.42838" lon="6.52035">
        <ele>128</ele>
        <time>2020-02-19T13:21:47Z</time>
      </trkpt>
      <trkpt lat="43.42841" lon="6.52046">
        <ele>129</ele>
        <time>2020-02-19T13:21:55Z</time>
      </trkpt>
      <trkpt lat="43.42844" lon="6.52056">
        <ele>130.2</ele>
        <time>2020-02-19T13:22:02Z</time>
      </trkpt>
      <trkpt lat="43.42848" lon="6.52066">
        <ele>130.4</ele>
        <time>2020-02-19T13:22:08Z</time>
      </trkpt>
      <trkpt lat="43.42851" lon="6.52078">
        <ele>130.7</ele>
        <time>2020-02-19T13:22:15Z</time>
      </trkpt>
      <trkpt lat="43.42853" lon="6.52089">
        <ele>131.2</ele>
        <time>2020-02-19T13:22:21Z</time>
      </trkpt>
      <trkpt lat="43.42853" lon="6.5209">
        <ele>131.4</ele>
        <time>2020-02-19T13:22:22Z</time>
      </trkpt>
      <trkpt lat="43.42855" lon="6.52112">
        <ele>132.6</ele>
        <time>2020-02-19T13:22:35Z</time>
      </trkpt>
      <trkpt lat="43.42855" lon="6.52124">
        <ele>133.3</ele>
        <time>2020-02-19T13:22:43Z</time>
      </trkpt>
      <trkpt lat="43.42851" lon="6.52133">
        <ele>133.8</ele>
        <time>2020-02-19T13:22:49Z</time>
      </trkpt>
      <trkpt lat="43.42844" lon="6.5214">
        <ele>134.5</ele>
        <time>2020-02-19T13:22:56Z</time>
      </trkpt>
      <trkpt lat="43.42836" lon="6.52145">
        <ele>135.4</ele>
        <time>2020-02-19T13:23:04Z</time>
      </trkpt>
      <trkpt lat="43.4283" lon="6.5215">
        <ele>136.9</ele>
        <time>2020-02-19T13:23:13Z</time>
      </trkpt>
      <trkpt lat="43.42821" lon="6.52155">
        <ele>137.5</ele>
        <time>2020-02-19T13:23:21Z</time>
      </trkpt>
      <trkpt lat="43.42813" lon="6.52159">
        <ele>137.8</ele>
        <time>2020-02-19T13:23:29Z</time>
      </trkpt>
      <trkpt lat="43.42812" lon="6.52159">
        <ele>137.9</ele>
        <time>2020-02-19T13:23:30Z</time>
      </trkpt>
      <trkpt lat="43.42798" lon="6.52165">
        <ele>138.6</ele>
        <time>2020-02-19T13:23:42Z</time>
      </trkpt>
      <trkpt lat="43.4279" lon="6.52166">
        <ele>139.2</ele>
        <time>2020-02-19T13:23:49Z</time>
      </trkpt>
      <trkpt lat="43.42781" lon="6.52165">
        <ele>139.7</ele>
        <time>2020-02-19T13:23:57Z</time>
      </trkpt>
      <trkpt lat="43.42773" lon="6.52163">
        <ele>140.3</ele>
        <time>2020-02-19T13:24:04Z</time>
      </trkpt>
      <trkpt lat="43.42765" lon="6.52161">
        <ele>140.9</ele>
        <time>2020-02-19T13:24:11Z</time>
      </trkpt>
      <trkpt lat="43.42757" lon="6.52157">
        <ele>141.3</ele>
        <time>2020-02-19T13:24:19Z</time>
      </trkpt>
      <trkpt lat="43.42749" lon="6.52154">
        <ele>141.9</ele>
        <time>2020-02-19T13:24:26Z</time>
      </trkpt>
      <trkpt lat="43.4274" lon="6.52153">
        <ele>142.5</ele>
        <time>2020-02-19T13:24:33Z</time>
      </trkpt>
      <trkpt lat="43.42739" lon="6.52153">
        <ele>142.6</ele>
        <time>2020-02-19T13:24:34Z</time>
      </trkpt>
      <trkpt lat="43.42724" lon="6.52155">
        <ele>144.1</ele>
        <time>2020-02-19T13:24:50Z</time>
      </trkpt>
      <trkpt lat="43.42717" lon="6.52159">
        <ele>144.8</ele>
        <time>2020-02-19T13:25:00Z</time>
      </trkpt>
      <trkpt lat="43.42709" lon="6.52166">
        <ele>145.3</ele>
        <time>2020-02-19T13:25:07Z</time>
      </trkpt>
      <trkpt lat="43.42703" lon="6.52173">
        <ele>145.6</ele>
        <time>2020-02-19T13:25:12Z</time>
      </trkpt>
      <trkpt lat="43.42696" lon="6.52179">
        <ele>146</ele>
        <time>2020-02-19T13:25:16Z</time>
      </trkpt>
      <trkpt lat="43.42689" lon="6.52185">
        <ele>146.6</ele>
        <time>2020-02-19T13:25:22Z</time>
      </trkpt>
      <trkpt lat="43.42683" lon="6.52192">
        <ele>147.2</ele>
        <time>2020-02-19T13:25:29Z</time>
      </trkpt>
      <trkpt lat="43.42677" lon="6.522">
        <ele>148</ele>
        <time>2020-02-19T13:25:37Z</time>
      </trkpt>
      <trkpt lat="43.42676" lon="6.52201">
        <ele>148</ele>
        <time>2020-02-19T13:25:38Z</time>
      </trkpt>
      <trkpt lat="43.42662" lon="6.5221">
        <ele>148.6</ele>
        <time>2020-02-19T13:25:50Z</time>
      </trkpt>
      <trkpt lat="43.42654" lon="6.52213">
        <ele>149.1</ele>
        <time>2020-02-19T13:25:56Z</time>
      </trkpt>
      <trkpt lat="43.42645" lon="6.52214">
        <ele>149.4</ele>
        <time>2020-02-19T13:26:03Z</time>
      </trkpt>
      <trkpt lat="43.42636" lon="6.52212">
        <ele>150</ele>
        <time>2020-02-19T13:26:12Z</time>
      </trkpt>
      <trkpt lat="43.42628" lon="6.52207">
        <ele>150.4</ele>
        <time>2020-02-19T13:26:20Z</time>
      </trkpt>
      <trkpt lat="43.42621" lon="6.52202">
        <ele>151</ele>
        <time>2020-02-19T13:26:28Z</time>
      </trkpt>
      <trkpt lat="43.42615" lon="6.52196">
        <ele>151.4</ele>
        <time>2020-02-19T13:26:35Z</time>
      </trkpt>
      <trkpt lat="43.42608" lon="6.52188">
        <ele>151.8</ele>
        <time>2020-02-19T13:26:42Z</time>
      </trkpt>
      <trkpt lat="43.42606" lon="6.52187">
        <ele>151.8</ele>
        <time>2020-02-19T13:26:43Z</time>
      </trkpt>
      <trkpt lat="43.42597" lon="6.5217">
        <ele>152.3</ele>
        <time>2020-02-19T13:26:56Z</time>
      </trkpt>
      <trkpt lat="43.42593" lon="6.52159">
        <ele>152.7</ele>
        <time>2020-02-19T13:27:04Z</time>
      </trkpt>
      <trkpt lat="43.42591" lon="6.52147">
        <ele>153.3</ele>
        <time>2020-02-19T13:27:13Z</time>
      </trkpt>
      <trkpt lat="43.42589" lon="6.52136">
        <ele>154.3</ele>
        <time>2020-02-19T13:27:22Z</time>
      </trkpt>
      <trkpt lat="43.42588" lon="6.52124">
        <ele>154.8</ele>
        <time>2020-02-19T13:27:30Z</time>
      </trkpt>
      <trkpt lat="43.42587" lon="6.52113">
        <ele>155.3</ele>
        <time>2020-02-19T13:27:37Z</time>
      </trkpt>
      <trkpt lat="43.42587" lon="6.52102">
        <ele>156.2</ele>
        <time>2020-02-19T13:27:45Z</time>
      </trkpt>
      <trkpt lat="43.42587" lon="6.52101">
        <ele>156.3</ele>
        <time>2020-02-19T13:27:46Z</time>
      </trkpt>
      <trkpt lat="43.42587" lon="6.52078">
        <ele>157.7</ele>
        <time>2020-02-19T13:28:01Z</time>
      </trkpt>
      <trkpt lat="43.42587" lon="6.52066">
        <ele>158.3</ele>
        <time>2020-02-19T13:28:08Z</time>
      </trkpt>
      <trkpt lat="43.42586" lon="6.52055">
        <ele>158.9</ele>
        <time>2020-02-19T13:28:15Z</time>
      </trkpt>
      <trkpt lat="43.42586" lon="6.52044">
        <ele>159.6</ele>
        <time>2020-02-19T13:28:21Z</time>
      </trkpt>
      <trkpt lat="43.42585" lon="6.52033">
        <ele>160.4</ele>
        <time>2020-02-19T13:28:27Z</time>
      </trkpt>
      <trkpt lat="43.42583" lon="6.52021">
        <ele>161</ele>
        <time>2020-02-19T13:28:34Z</time>
      </trkpt>
      <trkpt lat="43.42579" lon="6.5201">
        <ele>161.5</ele>
        <time>2020-02-19T13:28:41Z</time>
      </trkpt>
      <trkpt lat="43.42574" lon="6.52001">
        <ele>162</ele>
        <time>2020-02-19T13:28:49Z</time>
      </trkpt>
      <trkpt lat="43.42573" lon="6.51999">
        <ele>162.2</ele>
        <time>2020-02-19T13:28:50Z</time>
      </trkpt>
      <trkpt lat="43.4256" lon="6.51986">
        <ele>164.2</ele>
        <time>2020-02-19T13:29:05Z</time>
      </trkpt>
      <trkpt lat="43.42554" lon="6.51978">
        <ele>164.7</ele>
        <time>2020-02-19T13:29:14Z</time>
      </trkpt>
      <trkpt lat="43.42548" lon="6.5197">
        <ele>165.5</ele>
        <time>2020-02-19T13:29:23Z</time>
      </trkpt>
      <trkpt lat="43.4254" lon="6.51966">
        <ele>166.4</ele>
        <time>2020-02-19T13:29:31Z</time>
      </trkpt>
      <trkpt lat="43.42532" lon="6.51962">
        <ele>167.8</ele>
        <time>2020-02-19T13:29:39Z</time>
      </trkpt>
      <trkpt lat="43.42524" lon="6.51961">
        <ele>168.7</ele>
        <time>2020-02-19T13:29:46Z</time>
      </trkpt>
      <trkpt lat="43.42516" lon="6.51962">
        <ele>169</ele>
        <time>2020-02-19T13:29:51Z</time>
      </trkpt>
      <trkpt lat="43.42515" lon="6.51963">
        <ele>169.1</ele>
        <time>2020-02-19T13:29:52Z</time>
      </trkpt>
      <trkpt lat="43.42499" lon="6.51964">
        <ele>169.2</ele>
        <time>2020-02-19T13:30:03Z</time>
      </trkpt>
      <trkpt lat="43.42491" lon="6.51965">
        <ele>169.1</ele>
        <time>2020-02-19T13:30:09Z</time>
      </trkpt>
      <trkpt lat="43.42483" lon="6.51966">
        <ele>169.4</ele>
        <time>2020-02-19T13:30:15Z</time>
      </trkpt>
      <trkpt lat="43.42474" lon="6.51966">
        <ele>169.9</ele>
        <time>2020-02-19T13:30:22Z</time>
      </trkpt>
      <trkpt lat="43.42466" lon="6.51964">
        <ele>170.4</ele>
        <time>2020-02-19T13:30:30Z</time>
      </trkpt>
      <trkpt lat="43.42458" lon="6.51958">
        <ele>170.8</ele>
        <time>2020-02-19T13:30:40Z</time>
      </trkpt>
      <trkpt lat="43.4245" lon="6.51954">
        <ele>172.5</ele>
        <time>2020-02-19T13:30:49Z</time>
      </trkpt>
      <trkpt lat="43.42442" lon="6.51953">
        <ele>173.8</ele>
        <time>2020-02-19T13:33:47Z</time>
      </trkpt>
      <trkpt lat="43.42441" lon="6.51953">
        <ele>173.9</ele>
        <time>2020-02-19T13:33:48Z</time>
      </trkpt>
      <trkpt lat="43.42442" lon="6.51941">
        <ele>176.3</ele>
        <time>2020-02-19T13:36:45Z</time>
      </trkpt>
      <trkpt lat="43.42442" lon="6.5194">
        <ele>176.3</ele>
        <time>2020-02-19T13:36:46Z</time>
      </trkpt>
      <trkpt lat="43.42447" lon="6.51921">
        <ele>175.9</ele>
        <time>2020-02-19T13:37:00Z</time>
      </trkpt>
      <trkpt lat="43.42454" lon="6.51914">
        <ele>176</ele>
        <time>2020-02-19T13:37:07Z</time>
      </trkpt>
      <trkpt lat="43.42461" lon="6.51906">
        <ele>176.3</ele>
        <time>2020-02-19T13:37:14Z</time>
      </trkpt>
      <trkpt lat="43.42468" lon="6.519">
        <ele>176.8</ele>
        <time>2020-02-19T13:37:21Z</time>
      </trkpt>
      <trkpt lat="43.42474" lon="6.51891">
        <ele>177.4</ele>
        <time>2020-02-19T13:37:28Z</time>
      </trkpt>
      <trkpt lat="43.42481" lon="6.51884">
        <ele>177</ele>
        <time>2020-02-19T13:37:35Z</time>
      </trkpt>
      <trkpt lat="43.42487" lon="6.51876">
        <ele>177</ele>
        <time>2020-02-19T13:37:42Z</time>
      </trkpt>
      <trkpt lat="43.42492" lon="6.51867">
        <ele>177.2</ele>
        <time>2020-02-19T13:37:49Z</time>
      </trkpt>
      <trkpt lat="43.42493" lon="6.51865">
        <ele>177.3</ele>
        <time>2020-02-19T13:37:50Z</time>
      </trkpt>
      <trkpt lat="43.42502" lon="6.51848">
        <ele>177.8</ele>
        <time>2020-02-19T13:38:04Z</time>
      </trkpt>
      <trkpt lat="43.42506" lon="6.51838">
        <ele>178</ele>
        <time>2020-02-19T13:38:11Z</time>
      </trkpt>
      <trkpt lat="43.4251" lon="6.51828">
        <ele>178.1</ele>
        <time>2020-02-19T13:38:18Z</time>
      </trkpt>
      <trkpt lat="43.42513" lon="6.51818">
        <ele>178.6</ele>
        <time>2020-02-19T13:38:25Z</time>
      </trkpt>
      <trkpt lat="43.42517" lon="6.51809">
        <ele>179.1</ele>
        <time>2020-02-19T13:38:32Z</time>
      </trkpt>
      <trkpt lat="43.4252" lon="6.51799">
        <ele>179.4</ele>
        <time>2020-02-19T13:38:38Z</time>
      </trkpt>
      <trkpt lat="43.42524" lon="6.51789">
        <ele>179.9</ele>
        <time>2020-02-19T13:38:44Z</time>
      </trkpt>
      <trkpt lat="43.42527" lon="6.51778">
        <ele>181.3</ele>
        <time>2020-02-19T13:38:52Z</time>
      </trkpt>
      <trkpt lat="43.42528" lon="6.51776">
        <ele>181.4</ele>
        <time>2020-02-19T13:38:53Z</time>
      </trkpt>
      <trkpt lat="43.4253" lon="6.51756">
        <ele>181.4</ele>
        <time>2020-02-19T13:39:04Z</time>
      </trkpt>
      <trkpt lat="43.42527" lon="6.51745">
        <ele>181.6</ele>
        <time>2020-02-19T13:39:11Z</time>
      </trkpt>
      <trkpt lat="43.42522" lon="6.51735">
        <ele>182</ele>
        <time>2020-02-19T13:39:18Z</time>
      </trkpt>
      <trkpt lat="43.42516" lon="6.51727">
        <ele>182.6</ele>
        <time>2020-02-19T13:39:25Z</time>
      </trkpt>
      <trkpt lat="43.42511" lon="6.51718">
        <ele>182.8</ele>
        <time>2020-02-19T13:39:33Z</time>
      </trkpt>
      <trkpt lat="43.42508" lon="6.51708">
        <ele>182.9</ele>
        <time>2020-02-19T13:39:40Z</time>
      </trkpt>
      <trkpt lat="43.42504" lon="6.51697">
        <ele>183</ele>
        <time>2020-02-19T13:39:48Z</time>
      </trkpt>
      <trkpt lat="43.425" lon="6.51686">
        <ele>183.2</ele>
        <time>2020-02-19T13:39:56Z</time>
      </trkpt>
      <trkpt lat="43.425" lon="6.51685">
        <ele>183.2</ele>
        <time>2020-02-19T13:39:57Z</time>
      </trkpt>
      <trkpt lat="43.42492" lon="6.51667">
        <ele>184.2</ele>
        <time>2020-02-19T13:40:10Z</time>
      </trkpt>
      <trkpt lat="43.42487" lon="6.51657">
        <ele>184.8</ele>
        <time>2020-02-19T13:40:18Z</time>
      </trkpt>
      <trkpt lat="43.4248" lon="6.51649">
        <ele>185.3</ele>
        <time>2020-02-19T13:40:25Z</time>
      </trkpt>
      <trkpt lat="43.42474" lon="6.51641">
        <ele>185.6</ele>
        <time>2020-02-19T13:40:32Z</time>
      </trkpt>
      <trkpt lat="43.42469" lon="6.51632">
        <ele>186.1</ele>
        <time>2020-02-19T13:40:39Z</time>
      </trkpt>
      <trkpt lat="43.42461" lon="6.51626">
        <ele>186.3</ele>
        <time>2020-02-19T13:40:47Z</time>
      </trkpt>
      <trkpt lat="43.42453" lon="6.51625">
        <ele>187.1</ele>
        <time>2020-02-19T13:40:57Z</time>
      </trkpt>
      <trkpt lat="43.42445" lon="6.5163">
        <ele>187.7</ele>
        <time>2020-02-19T13:41:04Z</time>
      </trkpt>
      <trkpt lat="43.42444" lon="6.51631">
        <ele>187.7</ele>
        <time>2020-02-19T13:41:05Z</time>
      </trkpt>
      <trkpt lat="43.4243" lon="6.51639">
        <ele>188.3</ele>
        <time>2020-02-19T13:41:16Z</time>
      </trkpt>
      <trkpt lat="43.42421" lon="6.51641">
        <ele>188.6</ele>
        <time>2020-02-19T13:41:24Z</time>
      </trkpt>
      <trkpt lat="43.42413" lon="6.5164">
        <ele>189</ele>
        <time>2020-02-19T13:41:31Z</time>
      </trkpt>
      <trkpt lat="43.42404" lon="6.51638">
        <ele>190.3</ele>
        <time>2020-02-19T13:41:39Z</time>
      </trkpt>
      <trkpt lat="43.42396" lon="6.51638">
        <ele>190.7</ele>
        <time>2020-02-19T13:41:46Z</time>
      </trkpt>
      <trkpt lat="43.42388" lon="6.51638">
        <ele>191</ele>
        <time>2020-02-19T13:41:53Z</time>
      </trkpt>
      <trkpt lat="43.4238" lon="6.51637">
        <ele>191.4</ele>
        <time>2020-02-19T13:41:59Z</time>
      </trkpt>
      <trkpt lat="43.42372" lon="6.51637">
        <ele>192.3</ele>
        <time>2020-02-19T13:42:06Z</time>
      </trkpt>
      <trkpt lat="43.4237" lon="6.51637">
        <ele>192.4</ele>
        <time>2020-02-19T13:42:07Z</time>
      </trkpt>
      <trkpt lat="43.42355" lon="6.51633">
        <ele>193.2</ele>
        <time>2020-02-19T13:42:20Z</time>
      </trkpt>
      <trkpt lat="43.42347" lon="6.51626">
        <ele>193.6</ele>
        <time>2020-02-19T13:42:28Z</time>
      </trkpt>
      <trkpt lat="43.4234" lon="6.5162">
        <ele>194.4</ele>
        <time>2020-02-19T13:42:35Z</time>
      </trkpt>
      <trkpt lat="43.42335" lon="6.51611">
        <ele>194.6</ele>
        <time>2020-02-19T13:42:42Z</time>
      </trkpt>
      <trkpt lat="43.42329" lon="6.51603">
        <ele>195</ele>
        <time>2020-02-19T13:42:49Z</time>
      </trkpt>
      <trkpt lat="43.42323" lon="6.51595">
        <ele>195.7</ele>
        <time>2020-02-19T13:42:56Z</time>
      </trkpt>
      <trkpt lat="43.42317" lon="6.51587">
        <ele>195.7</ele>
        <time>2020-02-19T13:43:03Z</time>
      </trkpt>
      <trkpt lat="43.4231" lon="6.5158">
        <ele>196.3</ele>
        <time>2020-02-19T13:43:10Z</time>
      </trkpt>
      <trkpt lat="43.42309" lon="6.51579">
        <ele>196.4</ele>
        <time>2020-02-19T13:43:11Z</time>
      </trkpt>
      <trkpt lat="43.423" lon="6.51562">
        <ele>197.1</ele>
        <time>2020-02-19T13:43:24Z</time>
      </trkpt>
      <trkpt lat="43.42295" lon="6.51553">
        <ele>197.4</ele>
        <time>2020-02-19T13:43:31Z</time>
      </trkpt>
      <trkpt lat="43.4229" lon="6.51545">
        <ele>197.1</ele>
        <time>2020-02-19T13:43:38Z</time>
      </trkpt>
      <trkpt lat="43.42285" lon="6.51536">
        <ele>196.7</ele>
        <time>2020-02-19T13:43:45Z</time>
      </trkpt>
      <trkpt lat="43.42277" lon="6.51534">
        <ele>197</ele>
        <time>2020-02-19T13:43:53Z</time>
      </trkpt>
      <trkpt lat="43.42268" lon="6.51531">
        <ele>197.4</ele>
        <time>2020-02-19T13:44:02Z</time>
      </trkpt>
      <trkpt lat="43.42261" lon="6.5153">
        <ele>197.5</ele>
        <time>2020-02-19T13:44:08Z</time>
      </trkpt>
      <trkpt lat="43.42253" lon="6.51527">
        <ele>197.4</ele>
        <time>2020-02-19T13:44:15Z</time>
      </trkpt>
      <trkpt lat="43.42252" lon="6.51526">
        <ele>197.4</ele>
        <time>2020-02-19T13:44:16Z</time>
      </trkpt>
      <trkpt lat="43.42236" lon="6.51522">
        <ele>197.3</ele>
        <time>2020-02-19T13:44:28Z</time>
      </trkpt>
      <trkpt lat="43.42229" lon="6.5152">
        <ele>197.6</ele>
        <time>2020-02-19T13:44:34Z</time>
      </trkpt>
      <trkpt lat="43.42221" lon="6.51514">
        <ele>198.1</ele>
        <time>2020-02-19T13:44:41Z</time>
      </trkpt>
      <trkpt lat="43.42214" lon="6.51507">
        <ele>198.3</ele>
        <time>2020-02-19T13:44:48Z</time>
      </trkpt>
      <trkpt lat="43.42208" lon="6.51498">
        <ele>198.4</ele>
        <time>2020-02-19T13:44:55Z</time>
      </trkpt>
      <trkpt lat="43.42204" lon="6.51489">
        <ele>198.2</ele>
        <time>2020-02-19T13:45:01Z</time>
      </trkpt>
      <trkpt lat="43.42201" lon="6.51479">
        <ele>198.1</ele>
        <time>2020-02-19T13:45:07Z</time>
      </trkpt>
      <trkpt lat="43.42197" lon="6.51468">
        <ele>197.5</ele>
        <time>2020-02-19T13:45:14Z</time>
      </trkpt>
      <trkpt lat="43.42193" lon="6.51457">
        <ele>197.1</ele>
        <time>2020-02-19T13:45:21Z</time>
      </trkpt>
      <trkpt lat="43.42193" lon="6.51455">
        <ele>197</ele>
        <time>2020-02-19T13:45:22Z</time>
      </trkpt>
      <trkpt lat="43.42186" lon="6.51436">
        <ele>196.5</ele>
        <time>2020-02-19T13:45:35Z</time>
      </trkpt>
      <trkpt lat="43.42182" lon="6.51425">
        <ele>196.4</ele>
        <time>2020-02-19T13:45:42Z</time>
      </trkpt>
      <trkpt lat="43.42178" lon="6.51414">
        <ele>196.3</ele>
        <time>2020-02-19T13:45:49Z</time>
      </trkpt>
      <trkpt lat="43.42175" lon="6.51403">
        <ele>196.2</ele>
        <time>2020-02-19T13:45:56Z</time>
      </trkpt>
      <trkpt lat="43.4217" lon="6.51393">
        <ele>196.5</ele>
        <time>2020-02-19T13:46:03Z</time>
      </trkpt>
      <trkpt lat="43.42166" lon="6.51384">
        <ele>196.5</ele>
        <time>2020-02-19T13:46:09Z</time>
      </trkpt>
      <trkpt lat="43.42161" lon="6.51375">
        <ele>196.7</ele>
        <time>2020-02-19T13:46:16Z</time>
      </trkpt>
      <trkpt lat="43.42156" lon="6.51366">
        <ele>196.7</ele>
        <time>2020-02-19T13:46:22Z</time>
      </trkpt>
      <trkpt lat="43.42151" lon="6.51356">
        <ele>196.7</ele>
        <time>2020-02-19T13:46:29Z</time>
      </trkpt>
      <trkpt lat="43.42151" lon="6.51354">
        <ele>196.7</ele>
        <time>2020-02-19T13:46:30Z</time>
      </trkpt>
      <trkpt lat="43.42142" lon="6.51338">
        <ele>197.6</ele>
        <time>2020-02-19T13:46:42Z</time>
      </trkpt>
      <trkpt lat="43.42138" lon="6.51327">
        <ele>198.1</ele>
        <time>2020-02-19T13:46:49Z</time>
      </trkpt>
      <trkpt lat="43.42134" lon="6.51318">
        <ele>198.4</ele>
        <time>2020-02-19T13:46:55Z</time>
      </trkpt>
      <trkpt lat="43.42129" lon="6.5131">
        <ele>198.4</ele>
        <time>2020-02-19T13:47:01Z</time>
      </trkpt>
      <trkpt lat="43.42123" lon="6.51302">
        <ele>198.5</ele>
        <time>2020-02-19T13:47:07Z</time>
      </trkpt>
      <trkpt lat="43.42117" lon="6.51294">
        <ele>198.6</ele>
        <time>2020-02-19T13:47:14Z</time>
      </trkpt>
      <trkpt lat="43.4211" lon="6.51287">
        <ele>198.9</ele>
        <time>2020-02-19T13:47:21Z</time>
      </trkpt>
      <trkpt lat="43.42105" lon="6.5128">
        <ele>199.6</ele>
        <time>2020-02-19T13:47:27Z</time>
      </trkpt>
      <trkpt lat="43.421" lon="6.5127">
        <ele>200.1</ele>
        <time>2020-02-19T13:47:33Z</time>
      </trkpt>
      <trkpt lat="43.42099" lon="6.51268">
        <ele>200.1</ele>
        <time>2020-02-19T13:47:34Z</time>
      </trkpt>
      <trkpt lat="43.42092" lon="6.5125">
        <ele>200.2</ele>
        <time>2020-02-19T13:47:46Z</time>
      </trkpt>
      <trkpt lat="43.42088" lon="6.5124">
        <ele>200.2</ele>
        <time>2020-02-19T13:47:53Z</time>
      </trkpt>
      <trkpt lat="43.42084" lon="6.5123">
        <ele>200.6</ele>
        <time>2020-02-19T13:48:00Z</time>
      </trkpt>
      <trkpt lat="43.4208" lon="6.5122">
        <ele>200.8</ele>
        <time>2020-02-19T13:48:07Z</time>
      </trkpt>
      <trkpt lat="43.42075" lon="6.5121">
        <ele>201.2</ele>
        <time>2020-02-19T13:48:14Z</time>
      </trkpt>
      <trkpt lat="43.4207" lon="6.51202">
        <ele>201.5</ele>
        <time>2020-02-19T13:48:20Z</time>
      </trkpt>
      <trkpt lat="43.42063" lon="6.51194">
        <ele>201.7</ele>
        <time>2020-02-19T13:48:27Z</time>
      </trkpt>
      <trkpt lat="43.42057" lon="6.51187">
        <ele>202</ele>
        <time>2020-02-19T13:48:34Z</time>
      </trkpt>
      <trkpt lat="43.42056" lon="6.51187">
        <ele>202.1</ele>
        <time>2020-02-19T13:48:35Z</time>
      </trkpt>
      <trkpt lat="43.42043" lon="6.51176">
        <ele>202.6</ele>
        <time>2020-02-19T13:48:48Z</time>
      </trkpt>
      <trkpt lat="43.42038" lon="6.51168">
        <ele>202.9</ele>
        <time>2020-02-19T13:48:54Z</time>
      </trkpt>
      <trkpt lat="43.42033" lon="6.5116">
        <ele>203.2</ele>
        <time>2020-02-19T13:49:00Z</time>
      </trkpt>
      <trkpt lat="43.42028" lon="6.5115">
        <ele>203.6</ele>
        <time>2020-02-19T13:49:06Z</time>
      </trkpt>
      <trkpt lat="43.42024" lon="6.51141">
        <ele>204</ele>
        <time>2020-02-19T13:49:13Z</time>
      </trkpt>
      <trkpt lat="43.4202" lon="6.51131">
        <ele>204.5</ele>
        <time>2020-02-19T13:49:21Z</time>
      </trkpt>
      <trkpt lat="43.42016" lon="6.5112">
        <ele>205.1</ele>
        <time>2020-02-19T13:49:28Z</time>
      </trkpt>
      <trkpt lat="43.42012" lon="6.5111">
        <ele>205.5</ele>
        <time>2020-02-19T13:49:35Z</time>
      </trkpt>
      <trkpt lat="43.42008" lon="6.511">
        <ele>206.1</ele>
        <time>2020-02-19T13:49:42Z</time>
      </trkpt>
      <trkpt lat="43.42007" lon="6.51098">
        <ele>206.2</ele>
        <time>2020-02-19T13:49:43Z</time>
      </trkpt>
      <trkpt lat="43.41998" lon="6.51081">
        <ele>206.6</ele>
        <time>2020-02-19T13:49:55Z</time>
      </trkpt>
      <trkpt lat="43.41993" lon="6.51071">
        <ele>206.5</ele>
        <time>2020-02-19T13:50:02Z</time>
      </trkpt>
      <trkpt lat="43.41989" lon="6.51061">
        <ele>206.6</ele>
        <time>2020-02-19T13:50:09Z</time>
      </trkpt>
      <trkpt lat="43.41985" lon="6.51052">
        <ele>206.8</ele>
        <time>2020-02-19T13:50:16Z</time>
      </trkpt>
      <trkpt lat="43.41977" lon="6.51048">
        <ele>207</ele>
        <time>2020-02-19T13:50:24Z</time>
      </trkpt>
      <trkpt lat="43.41969" lon="6.51052">
        <ele>207.4</ele>
        <time>2020-02-19T13:50:31Z</time>
      </trkpt>
      <trkpt lat="43.41962" lon="6.51055">
        <ele>207.6</ele>
        <time>2020-02-19T13:50:37Z</time>
      </trkpt>
      <trkpt lat="43.41954" lon="6.51061">
        <ele>208.2</ele>
        <time>2020-02-19T13:50:43Z</time>
      </trkpt>
      <trkpt lat="43.4195" lon="6.51071">
        <ele>208</ele>
        <time>2020-02-19T13:50:52Z</time>
      </trkpt>
      <trkpt lat="43.41949" lon="6.51072">
        <ele>207.8</ele>
        <time>2020-02-19T13:50:53Z</time>
      </trkpt>
      <trkpt lat="43.41952" lon="6.51059">
        <ele>206.5</ele>
        <time>2020-02-19T13:52:58Z</time>
      </trkpt>
      <trkpt lat="43.41951" lon="6.51058">
        <ele>206.5</ele>
        <time>2020-02-19T13:52:59Z</time>
      </trkpt>
      <trkpt lat="43.41935" lon="6.51056">
        <ele>209.1</ele>
        <time>2020-02-19T13:53:17Z</time>
      </trkpt>
      <trkpt lat="43.41926" lon="6.51056">
        <ele>210.4</ele>
        <time>2020-02-19T13:53:26Z</time>
      </trkpt>
      <trkpt lat="43.41918" lon="6.51055">
        <ele>212.3</ele>
        <time>2020-02-19T13:53:38Z</time>
      </trkpt>
      <trkpt lat="43.4191" lon="6.51058">
        <ele>213.7</ele>
        <time>2020-02-19T13:53:47Z</time>
      </trkpt>
      <trkpt lat="43.41902" lon="6.51059">
        <ele>214.7</ele>
        <time>2020-02-19T13:53:54Z</time>
      </trkpt>
      <trkpt lat="43.41894" lon="6.5106">
        <ele>216.5</ele>
        <time>2020-02-19T13:54:03Z</time>
      </trkpt>
      <trkpt lat="43.41893" lon="6.5106">
        <ele>216.6</ele>
        <time>2020-02-19T13:54:04Z</time>
      </trkpt>
      <trkpt lat="43.41876" lon="6.51062">
        <ele>218.7</ele>
        <time>2020-02-19T13:54:22Z</time>
      </trkpt>
      <trkpt lat="43.41868" lon="6.51063">
        <ele>219.6</ele>
        <time>2020-02-19T13:54:32Z</time>
      </trkpt>
      <trkpt lat="43.41859" lon="6.51061">
        <ele>220.5</ele>
        <time>2020-02-19T13:54:49Z</time>
      </trkpt>
      <trkpt lat="43.4185" lon="6.51061">
        <ele>222.7</ele>
        <time>2020-02-19T13:55:03Z</time>
      </trkpt>
      <trkpt lat="43.41842" lon="6.51063">
        <ele>223.8</ele>
        <time>2020-02-19T13:55:14Z</time>
      </trkpt>
      <trkpt lat="43.41841" lon="6.51064">
        <ele>223.9</ele>
        <time>2020-02-19T13:55:15Z</time>
      </trkpt>
      <trkpt lat="43.41826" lon="6.51071">
        <ele>226.4</ele>
        <time>2020-02-19T13:55:32Z</time>
      </trkpt>
      <trkpt lat="43.41818" lon="6.51076">
        <ele>228</ele>
        <time>2020-02-19T13:55:41Z</time>
      </trkpt>
      <trkpt lat="43.41818" lon="6.51064">
        <ele>232.3</ele>
        <time>2020-02-19T13:56:05Z</time>
      </trkpt>
      <trkpt lat="43.41826" lon="6.51059">
        <ele>233</ele>
        <time>2020-02-19T13:56:12Z</time>
      </trkpt>
      <trkpt lat="43.41833" lon="6.51053">
        <ele>233.3</ele>
        <time>2020-02-19T13:56:21Z</time>
      </trkpt>
      <trkpt lat="43.41835" lon="6.51052">
        <ele>233.4</ele>
        <time>2020-02-19T13:56:22Z</time>
      </trkpt>
      <trkpt lat="43.41849" lon="6.51047">
        <ele>234.3</ele>
        <time>2020-02-19T13:56:36Z</time>
      </trkpt>
      <trkpt lat="43.41857" lon="6.51042">
        <ele>234.1</ele>
        <time>2020-02-19T13:56:44Z</time>
      </trkpt>
      <trkpt lat="43.41865" lon="6.51037">
        <ele>234.1</ele>
        <time>2020-02-19T13:56:53Z</time>
      </trkpt>
      <trkpt lat="43.41873" lon="6.51033">
        <ele>234.9</ele>
        <time>2020-02-19T13:57:01Z</time>
      </trkpt>
      <trkpt lat="43.41881" lon="6.51029">
        <ele>235.2</ele>
        <time>2020-02-19T13:57:09Z</time>
      </trkpt>
      <trkpt lat="43.41887" lon="6.51021">
        <ele>236</ele>
        <time>2020-02-19T13:57:16Z</time>
      </trkpt>
      <trkpt lat="43.41894" lon="6.51016">
        <ele>236.9</ele>
        <time>2020-02-19T13:57:23Z</time>
      </trkpt>
      <trkpt lat="43.41895" lon="6.51016">
        <ele>237</ele>
        <time>2020-02-19T13:57:24Z</time>
      </trkpt>
      <trkpt lat="43.41911" lon="6.5101">
        <ele>237.4</ele>
        <time>2020-02-19T13:57:40Z</time>
      </trkpt>
      <trkpt lat="43.41919" lon="6.51006">
        <ele>237.8</ele>
        <time>2020-02-19T13:57:47Z</time>
      </trkpt>
      <trkpt lat="43.41926" lon="6.50999">
        <ele>238.4</ele>
        <time>2020-02-19T13:57:54Z</time>
      </trkpt>
      <trkpt lat="43.41933" lon="6.50993">
        <ele>238.7</ele>
        <time>2020-02-19T13:58:01Z</time>
      </trkpt>
      <trkpt lat="43.4194" lon="6.50986">
        <ele>239.7</ele>
        <time>2020-02-19T13:58:08Z</time>
      </trkpt>
      <trkpt lat="43.41945" lon="6.50978">
        <ele>240</ele>
        <time>2020-02-19T13:58:14Z</time>
      </trkpt>
      <trkpt lat="43.4195" lon="6.50968">
        <ele>240.6</ele>
        <time>2020-02-19T13:58:21Z</time>
      </trkpt>
      <trkpt lat="43.41953" lon="6.50957">
        <ele>241</ele>
        <time>2020-02-19T13:58:29Z</time>
      </trkpt>
      <trkpt lat="43.41954" lon="6.50955">
        <ele>241.2</ele>
        <time>2020-02-19T13:58:30Z</time>
      </trkpt>
      <trkpt lat="43.41957" lon="6.50935">
        <ele>243.2</ele>
        <time>2020-02-19T13:58:44Z</time>
      </trkpt>
      <trkpt lat="43.41956" lon="6.50923">
        <ele>244.3</ele>
        <time>2020-02-19T13:58:53Z</time>
      </trkpt>
      <trkpt lat="43.41954" lon="6.50912">
        <ele>245</ele>
        <time>2020-02-19T13:59:01Z</time>
      </trkpt>
      <trkpt lat="43.41952" lon="6.509">
        <ele>246.1</ele>
        <time>2020-02-19T13:59:09Z</time>
      </trkpt>
      <trkpt lat="43.41951" lon="6.50888">
        <ele>246.5</ele>
        <time>2020-02-19T13:59:17Z</time>
      </trkpt>
      <trkpt lat="43.4195" lon="6.50876">
        <ele>246.8</ele>
        <time>2020-02-19T13:59:24Z</time>
      </trkpt>
      <trkpt lat="43.41948" lon="6.50865">
        <ele>247</ele>
        <time>2020-02-19T13:59:31Z</time>
      </trkpt>
      <trkpt lat="43.41948" lon="6.50864">
        <ele>247.1</ele>
        <time>2020-02-19T13:59:32Z</time>
      </trkpt>
      <trkpt lat="43.41946" lon="6.50841">
        <ele>248.6</ele>
        <time>2020-02-19T13:59:48Z</time>
      </trkpt>
      <trkpt lat="43.41945" lon="6.5083">
        <ele>249.7</ele>
        <time>2020-02-19T13:59:56Z</time>
      </trkpt>
      <trkpt lat="43.41943" lon="6.50819">
        <ele>250.8</ele>
        <time>2020-02-19T14:00:03Z</time>
      </trkpt>
      <trkpt lat="43.41937" lon="6.50811">
        <ele>251.4</ele>
        <time>2020-02-19T14:00:10Z</time>
      </trkpt>
      <trkpt lat="43.4193" lon="6.50805">
        <ele>251.9</ele>
        <time>2020-02-19T14:00:18Z</time>
      </trkpt>
      <trkpt lat="43.41924" lon="6.50796">
        <ele>252.6</ele>
        <time>2020-02-19T14:00:28Z</time>
      </trkpt>
      <trkpt lat="43.41916" lon="6.50791">
        <ele>252.6</ele>
        <time>2020-02-19T14:00:36Z</time>
      </trkpt>
      <trkpt lat="43.41916" lon="6.5079">
        <ele>252.6</ele>
        <time>2020-02-19T14:00:37Z</time>
      </trkpt>
      <trkpt lat="43.41911" lon="6.5077">
        <ele>253.6</ele>
        <time>2020-02-19T14:00:54Z</time>
      </trkpt>
      <trkpt lat="43.41912" lon="6.50758">
        <ele>254.2</ele>
        <time>2020-02-19T14:01:03Z</time>
      </trkpt>
      <trkpt lat="43.4191" lon="6.50747">
        <ele>255.5</ele>
        <time>2020-02-19T14:01:11Z</time>
      </trkpt>
      <trkpt lat="43.41907" lon="6.50736">
        <ele>257.2</ele>
        <time>2020-02-19T14:01:23Z</time>
      </trkpt>
      <trkpt lat="43.41904" lon="6.50725">
        <ele>259</ele>
        <time>2020-02-19T14:01:35Z</time>
      </trkpt>
      <trkpt lat="43.41901" lon="6.50715">
        <ele>261.3</ele>
        <time>2020-02-19T14:01:47Z</time>
      </trkpt>
      <trkpt lat="43.41901" lon="6.50714">
        <ele>261.5</ele>
        <time>2020-02-19T14:01:48Z</time>
      </trkpt>
      <trkpt lat="43.41895" lon="6.50692">
        <ele>264.8</ele>
        <time>2020-02-19T14:02:10Z</time>
      </trkpt>
      <trkpt lat="43.41894" lon="6.5068">
        <ele>266.1</ele>
        <time>2020-02-19T14:02:21Z</time>
      </trkpt>
      <trkpt lat="43.41893" lon="6.50668">
        <ele>267.4</ele>
        <time>2020-02-19T14:02:34Z</time>
      </trkpt>
      <trkpt lat="43.41893" lon="6.50656">
        <ele>270.1</ele>
        <time>2020-02-19T14:02:48Z</time>
      </trkpt>
      <trkpt lat="43.4189" lon="6.50644">
        <ele>272.1</ele>
        <time>2020-02-19T14:03:00Z</time>
      </trkpt>
      <trkpt lat="43.4189" lon="6.50643">
        <ele>272.3</ele>
        <time>2020-02-19T14:03:01Z</time>
      </trkpt>
      <trkpt lat="43.4189" lon="6.5062">
        <ele>276.8</ele>
        <time>2020-02-19T14:03:24Z</time>
      </trkpt>
      <trkpt lat="43.4189" lon="6.50609">
        <ele>277.6</ele>
        <time>2020-02-19T14:03:34Z</time>
      </trkpt>
      <trkpt lat="43.41886" lon="6.50598">
        <ele>277.9</ele>
        <time>2020-02-19T14:03:46Z</time>
      </trkpt>
      <trkpt lat="43.41888" lon="6.50586">
        <ele>278.6</ele>
        <time>2020-02-19T14:05:19Z</time>
      </trkpt>
      <trkpt lat="43.41888" lon="6.50586">
        <ele>278.6</ele>
        <time>2020-02-19T14:05:20Z</time>
      </trkpt>
      <trkpt lat="43.4188" lon="6.50581">
        <ele>277.7</ele>
        <time>2020-02-19T14:07:52Z</time>
      </trkpt>
      <trkpt lat="43.4188" lon="6.50581">
        <ele>277.8</ele>
        <time>2020-02-19T14:07:53Z</time>
      </trkpt>
      <trkpt lat="43.41865" lon="6.50574">
        <ele>278.2</ele>
        <time>2020-02-19T14:08:14Z</time>
      </trkpt>
      <trkpt lat="43.41857" lon="6.5057">
        <ele>278.9</ele>
        <time>2020-02-19T14:08:24Z</time>
      </trkpt>
      <trkpt lat="43.41849" lon="6.50567">
        <ele>279.8</ele>
        <time>2020-02-19T14:08:34Z</time>
      </trkpt>
      <trkpt lat="43.41841" lon="6.50563">
        <ele>280.5</ele>
        <time>2020-02-19T14:08:42Z</time>
      </trkpt>
      <trkpt lat="43.41833" lon="6.50559">
        <ele>281.2</ele>
        <time>2020-02-19T14:08:50Z</time>
      </trkpt>
      <trkpt lat="43.41824" lon="6.50557">
        <ele>281.6</ele>
        <time>2020-02-19T14:08:58Z</time>
      </trkpt>
      <trkpt lat="43.41823" lon="6.50556">
        <ele>281.7</ele>
        <time>2020-02-19T14:08:59Z</time>
      </trkpt>
      <trkpt lat="43.41807" lon="6.50554">
        <ele>283.4</ele>
        <time>2020-02-19T14:09:15Z</time>
      </trkpt>
      <trkpt lat="43.41798" lon="6.50554">
        <ele>283.7</ele>
        <time>2020-02-19T14:09:23Z</time>
      </trkpt>
      <trkpt lat="43.4179" lon="6.50556">
        <ele>283.5</ele>
        <time>2020-02-19T14:09:31Z</time>
      </trkpt>
      <trkpt lat="43.41782" lon="6.50559">
        <ele>284.1</ele>
        <time>2020-02-19T14:09:39Z</time>
      </trkpt>
      <trkpt lat="43.41774" lon="6.50562">
        <ele>284.8</ele>
        <time>2020-02-19T14:09:47Z</time>
      </trkpt>
      <trkpt lat="43.41766" lon="6.50567">
        <ele>284.7</ele>
        <time>2020-02-19T14:09:55Z</time>
      </trkpt>
      <trkpt lat="43.41759" lon="6.50572">
        <ele>284.2</ele>
        <time>2020-02-19T14:10:02Z</time>
      </trkpt>
      <trkpt lat="43.41758" lon="6.50572">
        <ele>284.3</ele>
        <time>2020-02-19T14:10:03Z</time>
      </trkpt>
      <trkpt lat="43.41744" lon="6.50583">
        <ele>284.9</ele>
        <time>2020-02-19T14:10:18Z</time>
      </trkpt>
      <trkpt lat="43.41737" lon="6.50589">
        <ele>284.5</ele>
        <time>2020-02-19T14:10:26Z</time>
      </trkpt>
      <trkpt lat="43.41729" lon="6.50594">
        <ele>284.8</ele>
        <time>2020-02-19T14:10:34Z</time>
      </trkpt>
      <trkpt lat="43.41722" lon="6.506">
        <ele>285</ele>
        <time>2020-02-19T14:10:42Z</time>
      </trkpt>
      <trkpt lat="43.41715" lon="6.50605">
        <ele>285</ele>
        <time>2020-02-19T14:10:50Z</time>
      </trkpt>
      <trkpt lat="43.41708" lon="6.50611">
        <ele>285.3</ele>
        <time>2020-02-19T14:10:57Z</time>
      </trkpt>
      <trkpt lat="43.41701" lon="6.50617">
        <ele>285.6</ele>
        <time>2020-02-19T14:11:05Z</time>
      </trkpt>
      <trkpt lat="43.417" lon="6.50618">
        <ele>285.7</ele>
        <time>2020-02-19T14:11:06Z</time>
      </trkpt>
      <trkpt lat="43.41687" lon="6.50632">
        <ele>286.4</ele>
        <time>2020-02-19T14:11:20Z</time>
      </trkpt>
      <trkpt lat="43.4168" lon="6.50637">
        <ele>286.8</ele>
        <time>2020-02-19T14:11:29Z</time>
      </trkpt>
      <trkpt lat="43.41673" lon="6.50642">
        <ele>287.7</ele>
        <time>2020-02-19T14:11:38Z</time>
      </trkpt>
      <trkpt lat="43.41666" lon="6.50648">
        <ele>289.5</ele>
        <time>2020-02-19T14:11:47Z</time>
      </trkpt>
      <trkpt lat="43.41658" lon="6.50653">
        <ele>290.3</ele>
        <time>2020-02-19T14:11:56Z</time>
      </trkpt>
      <trkpt lat="43.4165" lon="6.50659">
        <ele>292.4</ele>
        <time>2020-02-19T14:12:07Z</time>
      </trkpt>
      <trkpt lat="43.41649" lon="6.50659">
        <ele>292.5</ele>
        <time>2020-02-19T14:12:08Z</time>
      </trkpt>
      <trkpt lat="43.41636" lon="6.50671">
        <ele>294.8</ele>
        <time>2020-02-19T14:12:28Z</time>
      </trkpt>
      <trkpt lat="43.41629" lon="6.50677">
        <ele>297</ele>
        <time>2020-02-19T14:12:38Z</time>
      </trkpt>
      <trkpt lat="43.41622" lon="6.50684">
        <ele>299</ele>
        <time>2020-02-19T14:12:48Z</time>
      </trkpt>
      <trkpt lat="43.41615" lon="6.50691">
        <ele>301.1</ele>
        <time>2020-02-19T14:12:58Z</time>
      </trkpt>
      <trkpt lat="43.41608" lon="6.50696">
        <ele>302.2</ele>
        <time>2020-02-19T14:13:07Z</time>
      </trkpt>
      <trkpt lat="43.416" lon="6.50702">
        <ele>304</ele>
        <time>2020-02-19T14:13:20Z</time>
      </trkpt>
      <trkpt lat="43.416" lon="6.50702">
        <ele>304.2</ele>
        <time>2020-02-19T14:13:21Z</time>
      </trkpt>
      <trkpt lat="43.41585" lon="6.50714">
        <ele>307.6</ele>
        <time>2020-02-19T14:13:42Z</time>
      </trkpt>
      <trkpt lat="43.41579" lon="6.50721">
        <ele>309.4</ele>
        <time>2020-02-19T14:13:53Z</time>
      </trkpt>
      <trkpt lat="43.41572" lon="6.50729">
        <ele>310.8</ele>
        <time>2020-02-19T14:14:03Z</time>
      </trkpt>
      <trkpt lat="43.41565" lon="6.50737">
        <ele>311.5</ele>
        <time>2020-02-19T14:14:13Z</time>
      </trkpt>
      <trkpt lat="43.41558" lon="6.50743">
        <ele>313.2</ele>
        <time>2020-02-19T14:14:23Z</time>
      </trkpt>
      <trkpt lat="43.41557" lon="6.50744">
        <ele>313.4</ele>
        <time>2020-02-19T14:14:24Z</time>
      </trkpt>
      <trkpt lat="43.41545" lon="6.50757">
        <ele>316.2</ele>
        <time>2020-02-19T14:14:43Z</time>
      </trkpt>
      <trkpt lat="43.41539" lon="6.50767">
        <ele>318.9</ele>
        <time>2020-02-19T14:15:07Z</time>
      </trkpt>
      <trkpt lat="43.41536" lon="6.50778">
        <ele>319.1</ele>
        <time>2020-02-19T14:18:14Z</time>
      </trkpt>
      <trkpt lat="43.41536" lon="6.50779">
        <ele>319.2</ele>
        <time>2020-02-19T14:18:15Z</time>
      </trkpt>
      <trkpt lat="43.41539" lon="6.50767">
        <ele>318.7</ele>
        <time>2020-02-19T14:20:06Z</time>
      </trkpt>
      <trkpt lat="43.41539" lon="6.50766">
        <ele>318.5</ele>
        <time>2020-02-19T14:20:07Z</time>
      </trkpt>
      <trkpt lat="43.41553" lon="6.50754">
        <ele>316.7</ele>
        <time>2020-02-19T14:20:24Z</time>
      </trkpt>
      <trkpt lat="43.4156" lon="6.50747">
        <ele>316.6</ele>
        <time>2020-02-19T14:20:32Z</time>
      </trkpt>
      <trkpt lat="43.41567" lon="6.5074">
        <ele>315.9</ele>
        <time>2020-02-19T14:20:40Z</time>
      </trkpt>
      <trkpt lat="43.41574" lon="6.50734">
        <ele>314.6</ele>
        <time>2020-02-19T14:20:48Z</time>
      </trkpt>
      <trkpt lat="43.41582" lon="6.50727">
        <ele>313.9</ele>
        <time>2020-02-19T14:20:57Z</time>
      </trkpt>
      <trkpt lat="43.41589" lon="6.50721">
        <ele>312.4</ele>
        <time>2020-02-19T14:21:05Z</time>
      </trkpt>
      <trkpt lat="43.41595" lon="6.50715">
        <ele>310.9</ele>
        <time>2020-02-19T14:21:12Z</time>
      </trkpt>
      <trkpt lat="43.41596" lon="6.50714">
        <ele>310.8</ele>
        <time>2020-02-19T14:21:13Z</time>
      </trkpt>
      <trkpt lat="43.41608" lon="6.507">
        <ele>307.9</ele>
        <time>2020-02-19T14:21:27Z</time>
      </trkpt>
      <trkpt lat="43.41615" lon="6.50695">
        <ele>306.9</ele>
        <time>2020-02-19T14:21:34Z</time>
      </trkpt>
      <trkpt lat="43.41622" lon="6.50689">
        <ele>305.7</ele>
        <time>2020-02-19T14:21:41Z</time>
      </trkpt>
      <trkpt lat="43.41628" lon="6.50682">
        <ele>304.2</ele>
        <time>2020-02-19T14:21:48Z</time>
      </trkpt>
      <trkpt lat="43.41636" lon="6.50675">
        <ele>301.4</ele>
        <time>2020-02-19T14:21:57Z</time>
      </trkpt>
      <trkpt lat="43.41643" lon="6.50668">
        <ele>298.1</ele>
        <time>2020-02-19T14:22:06Z</time>
      </trkpt>
      <trkpt lat="43.41651" lon="6.50664">
        <ele>294.1</ele>
        <time>2020-02-19T14:22:15Z</time>
      </trkpt>
      <trkpt lat="43.41652" lon="6.50664">
        <ele>293.7</ele>
        <time>2020-02-19T14:22:16Z</time>
      </trkpt>
      <trkpt lat="43.41667" lon="6.50653">
        <ele>291.1</ele>
        <time>2020-02-19T14:22:31Z</time>
      </trkpt>
      <trkpt lat="43.41674" lon="6.50648">
        <ele>289.4</ele>
        <time>2020-02-19T14:22:39Z</time>
      </trkpt>
      <trkpt lat="43.41681" lon="6.50642">
        <ele>287.5</ele>
        <time>2020-02-19T14:22:47Z</time>
      </trkpt>
      <trkpt lat="43.41688" lon="6.50637">
        <ele>285.7</ele>
        <time>2020-02-19T14:22:54Z</time>
      </trkpt>
      <trkpt lat="43.41694" lon="6.5063">
        <ele>285.1</ele>
        <time>2020-02-19T14:23:00Z</time>
      </trkpt>
      <trkpt lat="43.41701" lon="6.50623">
        <ele>284.3</ele>
        <time>2020-02-19T14:23:08Z</time>
      </trkpt>
      <trkpt lat="43.41708" lon="6.50617">
        <ele>283.2</ele>
        <time>2020-02-19T14:23:15Z</time>
      </trkpt>
      <trkpt lat="43.41716" lon="6.50611">
        <ele>282.1</ele>
        <time>2020-02-19T14:23:22Z</time>
      </trkpt>
      <trkpt lat="43.41717" lon="6.5061">
        <ele>282</ele>
        <time>2020-02-19T14:23:23Z</time>
      </trkpt>
      <trkpt lat="43.41731" lon="6.506">
        <ele>280.6</ele>
        <time>2020-02-19T14:23:37Z</time>
      </trkpt>
      <trkpt lat="43.41739" lon="6.50595">
        <ele>280.2</ele>
        <time>2020-02-19T14:23:45Z</time>
      </trkpt>
      <trkpt lat="43.41746" lon="6.50589">
        <ele>279.7</ele>
        <time>2020-02-19T14:23:52Z</time>
      </trkpt>
      <trkpt lat="43.41753" lon="6.50584">
        <ele>279.3</ele>
        <time>2020-02-19T14:23:59Z</time>
      </trkpt>
      <trkpt lat="43.4176" lon="6.50578">
        <ele>279.1</ele>
        <time>2020-02-19T14:24:06Z</time>
      </trkpt>
      <trkpt lat="43.41767" lon="6.50573">
        <ele>279</ele>
        <time>2020-02-19T14:24:12Z</time>
      </trkpt>
      <trkpt lat="43.41776" lon="6.50568">
        <ele>279.3</ele>
        <time>2020-02-19T14:24:18Z</time>
      </trkpt>
      <trkpt lat="43.41783" lon="6.50565">
        <ele>278.8</ele>
        <time>2020-02-19T14:24:25Z</time>
      </trkpt>
      <trkpt lat="43.41785" lon="6.50565">
        <ele>278.8</ele>
        <time>2020-02-19T14:24:26Z</time>
      </trkpt>
      <trkpt lat="43.418" lon="6.50564">
        <ele>277.5</ele>
        <time>2020-02-19T14:24:38Z</time>
      </trkpt>
      <trkpt lat="43.41807" lon="6.50565">
        <ele>276.7</ele>
        <time>2020-02-19T14:24:44Z</time>
      </trkpt>
      <trkpt lat="43.41816" lon="6.50565">
        <ele>276.4</ele>
        <time>2020-02-19T14:24:51Z</time>
      </trkpt>
      <trkpt lat="43.41825" lon="6.50566">
        <ele>275.9</ele>
        <time>2020-02-19T14:24:58Z</time>
      </trkpt>
      <trkpt lat="43.41834" lon="6.50568">
        <ele>274.9</ele>
        <time>2020-02-19T14:25:05Z</time>
      </trkpt>
      <trkpt lat="43.41841" lon="6.5057">
        <ele>274.3</ele>
        <time>2020-02-19T14:25:12Z</time>
      </trkpt>
      <trkpt lat="43.41849" lon="6.50574">
        <ele>273.6</ele>
        <time>2020-02-19T14:25:19Z</time>
      </trkpt>
      <trkpt lat="43.41857" lon="6.50577">
        <ele>273.2</ele>
        <time>2020-02-19T14:25:26Z</time>
      </trkpt>
      <trkpt lat="43.41865" lon="6.50581">
        <ele>272.8</ele>
        <time>2020-02-19T14:25:33Z</time>
      </trkpt>
      <trkpt lat="43.41866" lon="6.50581">
        <ele>272.8</ele>
        <time>2020-02-19T14:25:34Z</time>
      </trkpt>
      <trkpt lat="43.4188" lon="6.50588">
        <ele>271.1</ele>
        <time>2020-02-19T14:25:49Z</time>
      </trkpt>
      <trkpt lat="43.41887" lon="6.50593">
        <ele>270.8</ele>
        <time>2020-02-19T14:25:55Z</time>
      </trkpt>
      <trkpt lat="43.41895" lon="6.50598">
        <ele>270.6</ele>
        <time>2020-02-19T14:26:02Z</time>
      </trkpt>
      <trkpt lat="43.41903" lon="6.50602">
        <ele>270.2</ele>
        <time>2020-02-19T14:26:09Z</time>
      </trkpt>
      <trkpt lat="43.41912" lon="6.50605">
        <ele>270</ele>
        <time>2020-02-19T14:26:16Z</time>
      </trkpt>
      <trkpt lat="43.4192" lon="6.50607">
        <ele>269.9</ele>
        <time>2020-02-19T14:26:23Z</time>
      </trkpt>
      <trkpt lat="43.41929" lon="6.5061">
        <ele>269.8</ele>
        <time>2020-02-19T14:26:30Z</time>
      </trkpt>
      <trkpt lat="43.41937" lon="6.50612">
        <ele>269.4</ele>
        <time>2020-02-19T14:26:37Z</time>
      </trkpt>
      <trkpt lat="43.41938" lon="6.50612">
        <ele>269.3</ele>
        <time>2020-02-19T14:26:38Z</time>
      </trkpt>
      <trkpt lat="43.41954" lon="6.50614">
        <ele>268.6</ele>
        <time>2020-02-19T14:26:50Z</time>
      </trkpt>
      <trkpt lat="43.41962" lon="6.50617">
        <ele>268.4</ele>
        <time>2020-02-19T14:26:57Z</time>
      </trkpt>
      <trkpt lat="43.41971" lon="6.50618">
        <ele>268.4</ele>
        <time>2020-02-19T14:27:05Z</time>
      </trkpt>
      <trkpt lat="43.41979" lon="6.50616">
        <ele>268.1</ele>
        <time>2020-02-19T14:27:16Z</time>
      </trkpt>
      <trkpt lat="43.41985" lon="6.50607">
        <ele>268.1</ele>
        <time>2020-02-19T14:27:37Z</time>
      </trkpt>
      <trkpt lat="43.41994" lon="6.50608">
        <ele>268.3</ele>
        <time>2020-02-19T14:30:29Z</time>
      </trkpt>
      <trkpt lat="43.41994" lon="6.50608">
        <ele>268.3</ele>
        <time>2020-02-19T14:30:30Z</time>
      </trkpt>
      <trkpt lat="43.4201" lon="6.50599">
        <ele>268.8</ele>
        <time>2020-02-19T14:30:49Z</time>
      </trkpt>
      <trkpt lat="43.42018" lon="6.50594">
        <ele>268.9</ele>
        <time>2020-02-19T14:30:58Z</time>
      </trkpt>
      <trkpt lat="43.42025" lon="6.50589">
        <ele>268.9</ele>
        <time>2020-02-19T14:31:05Z</time>
      </trkpt>
      <trkpt lat="43.42033" lon="6.50587">
        <ele>268.3</ele>
        <time>2020-02-19T14:31:13Z</time>
      </trkpt>
      <trkpt lat="43.42042" lon="6.50585">
        <ele>267.5</ele>
        <time>2020-02-19T14:31:23Z</time>
      </trkpt>
      <trkpt lat="43.4205" lon="6.50582">
        <ele>266</ele>
        <time>2020-02-19T14:31:32Z</time>
      </trkpt>
      <trkpt lat="43.42051" lon="6.50582">
        <ele>265.9</ele>
        <time>2020-02-19T14:31:33Z</time>
      </trkpt>
      <trkpt lat="43.42067" lon="6.50577">
        <ele>264.9</ele>
        <time>2020-02-19T14:31:46Z</time>
      </trkpt>
      <trkpt lat="43.42074" lon="6.50572">
        <ele>264.4</ele>
        <time>2020-02-19T14:31:52Z</time>
      </trkpt>
      <trkpt lat="43.42079" lon="6.50565">
        <ele>264.2</ele>
        <time>2020-02-19T14:31:58Z</time>
      </trkpt>
      <trkpt lat="43.42086" lon="6.50557">
        <ele>264.1</ele>
        <time>2020-02-19T14:32:05Z</time>
      </trkpt>
      <trkpt lat="43.42093" lon="6.5055">
        <ele>263.8</ele>
        <time>2020-02-19T14:32:12Z</time>
      </trkpt>
      <trkpt lat="43.421" lon="6.50543">
        <ele>263.5</ele>
        <time>2020-02-19T14:32:19Z</time>
      </trkpt>
      <trkpt lat="43.42106" lon="6.50535">
        <ele>263.3</ele>
        <time>2020-02-19T14:32:27Z</time>
      </trkpt>
      <trkpt lat="43.4211" lon="6.50524">
        <ele>263.1</ele>
        <time>2020-02-19T14:32:34Z</time>
      </trkpt>
      <trkpt lat="43.4211" lon="6.50523">
        <ele>263.1</ele>
        <time>2020-02-19T14:32:35Z</time>
      </trkpt>
      <trkpt lat="43.42113" lon="6.50503">
        <ele>262.8</ele>
        <time>2020-02-19T14:32:47Z</time>
      </trkpt>
      <trkpt lat="43.42113" lon="6.50492">
        <ele>262.6</ele>
        <time>2020-02-19T14:32:52Z</time>
      </trkpt>
      <trkpt lat="43.42113" lon="6.50481">
        <ele>262.6</ele>
        <time>2020-02-19T14:32:58Z</time>
      </trkpt>
      <trkpt lat="43.42111" lon="6.5047">
        <ele>262.3</ele>
        <time>2020-02-19T14:33:04Z</time>
      </trkpt>
      <trkpt lat="43.42112" lon="6.50459">
        <ele>262.1</ele>
        <time>2020-02-19T14:33:13Z</time>
      </trkpt>
      <trkpt lat="43.42113" lon="6.50448">
        <ele>261.8</ele>
        <time>2020-02-19T14:33:21Z</time>
      </trkpt>
      <trkpt lat="43.42113" lon="6.50436">
        <ele>261.5</ele>
        <time>2020-02-19T14:33:30Z</time>
      </trkpt>
      <trkpt lat="43.42111" lon="6.50425">
        <ele>261.1</ele>
        <time>2020-02-19T14:33:38Z</time>
      </trkpt>
      <trkpt lat="43.4211" lon="6.50424">
        <ele>261.1</ele>
        <time>2020-02-19T14:33:39Z</time>
      </trkpt>
      <trkpt lat="43.42104" lon="6.50405">
        <ele>258.9</ele>
        <time>2020-02-19T14:33:52Z</time>
      </trkpt>
      <trkpt lat="43.421" lon="6.50396">
        <ele>257.8</ele>
        <time>2020-02-19T14:33:59Z</time>
      </trkpt>
      <trkpt lat="43.42095" lon="6.50387">
        <ele>256.6</ele>
        <time>2020-02-19T14:34:07Z</time>
      </trkpt>
      <trkpt lat="43.4209" lon="6.50378">
        <ele>254.3</ele>
        <time>2020-02-19T14:34:18Z</time>
      </trkpt>
      <trkpt lat="43.42084" lon="6.50369">
        <ele>252.3</ele>
        <time>2020-02-19T14:34:27Z</time>
      </trkpt>
      <trkpt lat="43.42078" lon="6.5036">
        <ele>251.3</ele>
        <time>2020-02-19T14:34:35Z</time>
      </trkpt>
      <trkpt lat="43.42072" lon="6.50351">
        <ele>250.4</ele>
        <time>2020-02-19T14:34:42Z</time>
      </trkpt>
      <trkpt lat="43.42072" lon="6.5035">
        <ele>250.2</ele>
        <time>2020-02-19T14:34:43Z</time>
      </trkpt>
      <trkpt lat="43.42061" lon="6.50335">
        <ele>248.5</ele>
        <time>2020-02-19T14:34:55Z</time>
      </trkpt>
      <trkpt lat="43.42056" lon="6.50328">
        <ele>248.2</ele>
        <time>2020-02-19T14:35:00Z</time>
      </trkpt>
      <trkpt lat="43.42051" lon="6.50318">
        <ele>247.2</ele>
        <time>2020-02-19T14:35:08Z</time>
      </trkpt>
      <trkpt lat="43.42045" lon="6.50309">
        <ele>246.4</ele>
        <time>2020-02-19T14:35:15Z</time>
      </trkpt>
      <trkpt lat="43.42041" lon="6.503">
        <ele>245.1</ele>
        <time>2020-02-19T14:35:22Z</time>
      </trkpt>
      <trkpt lat="43.42036" lon="6.50291">
        <ele>244</ele>
        <time>2020-02-19T14:35:28Z</time>
      </trkpt>
      <trkpt lat="43.42031" lon="6.50281">
        <ele>242.5</ele>
        <time>2020-02-19T14:35:37Z</time>
      </trkpt>
      <trkpt lat="43.42027" lon="6.50271">
        <ele>240.9</ele>
        <time>2020-02-19T14:35:45Z</time>
      </trkpt>
      <trkpt lat="43.42026" lon="6.5027">
        <ele>240.8</ele>
        <time>2020-02-19T14:35:46Z</time>
      </trkpt>
      <trkpt lat="43.42016" lon="6.50254">
        <ele>238.8</ele>
        <time>2020-02-19T14:35:59Z</time>
      </trkpt>
      <trkpt lat="43.42012" lon="6.50245">
        <ele>237.6</ele>
        <time>2020-02-19T14:36:07Z</time>
      </trkpt>
      <trkpt lat="43.42007" lon="6.50236">
        <ele>236.6</ele>
        <time>2020-02-19T14:36:14Z</time>
      </trkpt>
      <trkpt lat="43.42003" lon="6.50227">
        <ele>235.4</ele>
        <time>2020-02-19T14:36:21Z</time>
      </trkpt>
      <trkpt lat="43.41997" lon="6.50217">
        <ele>234.1</ele>
        <time>2020-02-19T14:36:29Z</time>
      </trkpt>
      <trkpt lat="43.41993" lon="6.50208">
        <ele>232.3</ele>
        <time>2020-02-19T14:36:37Z</time>
      </trkpt>
      <trkpt lat="43.41988" lon="6.50198">
        <ele>230.7</ele>
        <time>2020-02-19T14:36:45Z</time>
      </trkpt>
      <trkpt lat="43.41983" lon="6.50189">
        <ele>229.5</ele>
        <time>2020-02-19T14:36:55Z</time>
      </trkpt>
      <trkpt lat="43.41983" lon="6.50188">
        <ele>229.4</ele>
        <time>2020-02-19T14:36:56Z</time>
      </trkpt>
      <trkpt lat="43.41975" lon="6.50169">
        <ele>225</ele>
        <time>2020-02-19T14:37:14Z</time>
      </trkpt>
      <trkpt lat="43.4197" lon="6.50159">
        <ele>222.3</ele>
        <time>2020-02-19T14:37:23Z</time>
      </trkpt>
      <trkpt lat="43.41968" lon="6.50148">
        <ele>220.6</ele>
        <time>2020-02-19T14:37:32Z</time>
      </trkpt>
      <trkpt lat="43.41963" lon="6.50138">
        <ele>220.3</ele>
        <time>2020-02-19T14:37:41Z</time>
      </trkpt>
      <trkpt lat="43.41956" lon="6.5013">
        <ele>218.1</ele>
        <time>2020-02-19T14:38:16Z</time>
      </trkpt>
      <trkpt lat="43.41956" lon="6.5013">
        <ele>218.1</ele>
        <time>2020-02-19T14:38:17Z</time>
      </trkpt>
      <trkpt lat="43.41957" lon="6.50118">
        <ele>218.1</ele>
        <time>2020-02-19T14:40:03Z</time>
      </trkpt>
      <trkpt lat="43.41957" lon="6.50117">
        <ele>218.1</ele>
        <time>2020-02-19T14:40:04Z</time>
      </trkpt>
      <trkpt lat="43.41947" lon="6.50099">
        <ele>217.1</ele>
        <time>2020-02-19T14:40:25Z</time>
      </trkpt>
      <trkpt lat="43.41939" lon="6.50094">
        <ele>216.9</ele>
        <time>2020-02-19T14:40:35Z</time>
      </trkpt>
      <trkpt lat="43.4193" lon="6.5009">
        <ele>216.6</ele>
        <time>2020-02-19T14:40:43Z</time>
      </trkpt>
      <trkpt lat="43.41922" lon="6.50086">
        <ele>216.3</ele>
        <time>2020-02-19T14:40:52Z</time>
      </trkpt>
      <trkpt lat="43.41915" lon="6.50081">
        <ele>216.4</ele>
        <time>2020-02-19T14:41:01Z</time>
      </trkpt>
      <trkpt lat="43.41907" lon="6.50077">
        <ele>216.5</ele>
        <time>2020-02-19T14:41:08Z</time>
      </trkpt>
      <trkpt lat="43.41906" lon="6.50077">
        <ele>216.5</ele>
        <time>2020-02-19T14:41:09Z</time>
      </trkpt>
      <trkpt lat="43.41893" lon="6.50068">
        <ele>217</ele>
        <time>2020-02-19T14:41:21Z</time>
      </trkpt>
      <trkpt lat="43.41885" lon="6.50064">
        <ele>217.1</ele>
        <time>2020-02-19T14:41:28Z</time>
      </trkpt>
      <trkpt lat="43.41877" lon="6.5006">
        <ele>216.6</ele>
        <time>2020-02-19T14:41:35Z</time>
      </trkpt>
      <trkpt lat="43.4187" lon="6.50053">
        <ele>216.3</ele>
        <time>2020-02-19T14:41:43Z</time>
      </trkpt>
      <trkpt lat="43.41863" lon="6.50046">
        <ele>216.2</ele>
        <time>2020-02-19T14:41:52Z</time>
      </trkpt>
      <trkpt lat="43.41858" lon="6.50038">
        <ele>216.1</ele>
        <time>2020-02-19T14:41:58Z</time>
      </trkpt>
      <trkpt lat="43.41852" lon="6.5003">
        <ele>216.2</ele>
        <time>2020-02-19T14:42:05Z</time>
      </trkpt>
      <trkpt lat="43.41846" lon="6.50022">
        <ele>216.1</ele>
        <time>2020-02-19T14:42:13Z</time>
      </trkpt>
      <trkpt lat="43.41845" lon="6.5002">
        <ele>216.1</ele>
        <time>2020-02-19T14:42:14Z</time>
      </trkpt>
      <trkpt lat="43.41836" lon="6.50003">
        <ele>215.5</ele>
        <time>2020-02-19T14:42:29Z</time>
      </trkpt>
      <trkpt lat="43.41831" lon="6.49993">
        <ele>215.4</ele>
        <time>2020-02-19T14:42:37Z</time>
      </trkpt>
      <trkpt lat="43.41826" lon="6.49983">
        <ele>215.5</ele>
        <time>2020-02-19T14:42:44Z</time>
      </trkpt>
      <trkpt lat="43.41822" lon="6.49973">
        <ele>215.2</ele>
        <time>2020-02-19T14:42:51Z</time>
      </trkpt>
      <trkpt lat="43.41819" lon="6.49961">
        <ele>214.7</ele>
        <time>2020-02-19T14:42:59Z</time>
      </trkpt>
      <trkpt lat="43.41817" lon="6.4995">
        <ele>214.3</ele>
        <time>2020-02-19T14:43:07Z</time>
      </trkpt>
      <trkpt lat="43.41815" lon="6.49938">
        <ele>214</ele>
        <time>2020-02-19T14:43:16Z</time>
      </trkpt>
      <trkpt lat="43.41815" lon="6.49937">
        <ele>214</ele>
        <time>2020-02-19T14:43:17Z</time>
      </trkpt>
      <trkpt lat="43.41819" lon="6.49917">
        <ele>214.1</ele>
        <time>2020-02-19T14:43:31Z</time>
      </trkpt>
      <trkpt lat="43.41817" lon="6.49905">
        <ele>214.5</ele>
        <time>2020-02-19T14:43:37Z</time>
      </trkpt>
      <trkpt lat="43.41813" lon="6.49895">
        <ele>214.1</ele>
        <time>2020-02-19T14:43:42Z</time>
      </trkpt>
      <trkpt lat="43.41808" lon="6.49887">
        <ele>213.5</ele>
        <time>2020-02-19T14:43:48Z</time>
      </trkpt>
      <trkpt lat="43.41803" lon="6.49877">
        <ele>212.6</ele>
        <time>2020-02-19T14:43:55Z</time>
      </trkpt>
      <trkpt lat="43.41797" lon="6.49868">
        <ele>211.9</ele>
        <time>2020-02-19T14:44:04Z</time>
      </trkpt>
      <trkpt lat="43.41791" lon="6.49859">
        <ele>210.9</ele>
        <time>2020-02-19T14:44:13Z</time>
      </trkpt>
      <trkpt lat="43.41786" lon="6.49851">
        <ele>210.3</ele>
        <time>2020-02-19T14:44:21Z</time>
      </trkpt>
      <trkpt lat="43.41785" lon="6.4985">
        <ele>210.2</ele>
        <time>2020-02-19T14:44:22Z</time>
      </trkpt>
      <trkpt lat="43.41775" lon="6.49835">
        <ele>209.5</ele>
        <time>2020-02-19T14:44:34Z</time>
      </trkpt>
      <trkpt lat="43.41769" lon="6.49827">
        <ele>209.4</ele>
        <time>2020-02-19T14:44:41Z</time>
      </trkpt>
      <trkpt lat="43.41764" lon="6.49817">
        <ele>209.3</ele>
        <time>2020-02-19T14:44:49Z</time>
      </trkpt>
      <trkpt lat="43.41758" lon="6.49809">
        <ele>208.4</ele>
        <time>2020-02-19T14:44:55Z</time>
      </trkpt>
      <trkpt lat="43.41753" lon="6.498">
        <ele>207.9</ele>
        <time>2020-02-19T14:45:03Z</time>
      </trkpt>
      <trkpt lat="43.41747" lon="6.49792">
        <ele>207.6</ele>
        <time>2020-02-19T14:45:10Z</time>
      </trkpt>
      <trkpt lat="43.41742" lon="6.49784">
        <ele>206.4</ele>
        <time>2020-02-19T14:45:17Z</time>
      </trkpt>
      <trkpt lat="43.41736" lon="6.49775">
        <ele>205.2</ele>
        <time>2020-02-19T14:45:25Z</time>
      </trkpt>
      <trkpt lat="43.41735" lon="6.49774">
        <ele>205.1</ele>
        <time>2020-02-19T14:45:26Z</time>
      </trkpt>
      <trkpt lat="43.41727" lon="6.49755">
        <ele>204.5</ele>
        <time>2020-02-19T14:45:41Z</time>
      </trkpt>
      <trkpt lat="43.41723" lon="6.49744">
        <ele>204.1</ele>
        <time>2020-02-19T14:45:49Z</time>
      </trkpt>
      <trkpt lat="43.4172" lon="6.49734">
        <ele>203.5</ele>
        <time>2020-02-19T14:45:55Z</time>
      </trkpt>
      <trkpt lat="43.41719" lon="6.49722">
        <ele>203.1</ele>
        <time>2020-02-19T14:46:04Z</time>
      </trkpt>
      <trkpt lat="43.41719" lon="6.4971">
        <ele>202.8</ele>
        <time>2020-02-19T14:46:12Z</time>
      </trkpt>
      <trkpt lat="43.41721" lon="6.49699">
        <ele>202.8</ele>
        <time>2020-02-19T14:46:20Z</time>
      </trkpt>
      <trkpt lat="43.41723" lon="6.49688">
        <ele>202.6</ele>
        <time>2020-02-19T14:46:27Z</time>
      </trkpt>
      <trkpt lat="43.41723" lon="6.49686">
        <ele>202.6</ele>
        <time>2020-02-19T14:46:28Z</time>
      </trkpt>
      <trkpt lat="43.41733" lon="6.4967">
        <ele>202.4</ele>
        <time>2020-02-19T14:46:58Z</time>
      </trkpt>
      <trkpt lat="43.41741" lon="6.49673">
        <ele>202.1</ele>
        <time>2020-02-19T14:47:09Z</time>
      </trkpt>
      <trkpt lat="43.41749" lon="6.49679">
        <ele>201.7</ele>
        <time>2020-02-19T14:47:18Z</time>
      </trkpt>
      <trkpt lat="43.41756" lon="6.49685">
        <ele>201.4</ele>
        <time>2020-02-19T14:47:26Z</time>
      </trkpt>
      <trkpt lat="43.41763" lon="6.49692">
        <ele>201.5</ele>
        <time>2020-02-19T14:47:34Z</time>
      </trkpt>
      <trkpt lat="43.41763" lon="6.49693">
        <ele>201.5</ele>
        <time>2020-02-19T14:47:35Z</time>
      </trkpt>
      <trkpt lat="43.41776" lon="6.49706">
        <ele>200.8</ele>
        <time>2020-02-19T14:47:50Z</time>
      </trkpt>
      <trkpt lat="43.41783" lon="6.49713">
        <ele>200.6</ele>
        <time>2020-02-19T14:47:58Z</time>
      </trkpt>
      <trkpt lat="43.41789" lon="6.49721">
        <ele>200.1</ele>
        <time>2020-02-19T14:48:06Z</time>
      </trkpt>
      <trkpt lat="43.41796" lon="6.49729">
        <ele>200.2</ele>
        <time>2020-02-19T14:48:13Z</time>
      </trkpt>
      <trkpt lat="43.41803" lon="6.49737">
        <ele>200.3</ele>
        <time>2020-02-19T14:48:21Z</time>
      </trkpt>
      <trkpt lat="43.41809" lon="6.49745">
        <ele>200.4</ele>
        <time>2020-02-19T14:48:28Z</time>
      </trkpt>
      <trkpt lat="43.41815" lon="6.49753">
        <ele>200.4</ele>
        <time>2020-02-19T14:48:35Z</time>
      </trkpt>
      <trkpt lat="43.41821" lon="6.49762">
        <ele>200.5</ele>
        <time>2020-02-19T14:48:43Z</time>
      </trkpt>
      <trkpt lat="43.41822" lon="6.49763">
        <ele>200.5</ele>
        <time>2020-02-19T14:48:44Z</time>
      </trkpt>
      <trkpt lat="43.41835" lon="6.49776">
        <ele>199.9</ele>
        <time>2020-02-19T14:48:57Z</time>
      </trkpt>
      <trkpt lat="43.41842" lon="6.49784">
        <ele>200.2</ele>
        <time>2020-02-19T14:49:04Z</time>
      </trkpt>
      <trkpt lat="43.41848" lon="6.49792">
        <ele>200.4</ele>
        <time>2020-02-19T14:49:11Z</time>
      </trkpt>
      <trkpt lat="43.41852" lon="6.49802">
        <ele>200.1</ele>
        <time>2020-02-19T14:49:18Z</time>
      </trkpt>
      <trkpt lat="43.41854" lon="6.49813">
        <ele>199.6</ele>
        <time>2020-02-19T14:49:25Z</time>
      </trkpt>
      <trkpt lat="43.41855" lon="6.49824">
        <ele>199.4</ele>
        <time>2020-02-19T14:49:32Z</time>
      </trkpt>
      <trkpt lat="43.41853" lon="6.49835">
        <ele>199.5</ele>
        <time>2020-02-19T14:49:41Z</time>
      </trkpt>
      <trkpt lat="43.41855" lon="6.49846">
        <ele>199.5</ele>
        <time>2020-02-19T14:49:48Z</time>
      </trkpt>
      <trkpt lat="43.41855" lon="6.49848">
        <ele>199.5</ele>
        <time>2020-02-19T14:49:49Z</time>
      </trkpt>
      <trkpt lat="43.41857" lon="6.49868">
        <ele>199.7</ele>
        <time>2020-02-19T14:50:03Z</time>
      </trkpt>
      <trkpt lat="43.41865" lon="6.49872">
        <ele>199.5</ele>
        <time>2020-02-19T14:50:12Z</time>
      </trkpt>
      <trkpt lat="43.41873" lon="6.49876">
        <ele>199.3</ele>
        <time>2020-02-19T14:50:21Z</time>
      </trkpt>
      <trkpt lat="43.41881" lon="6.49882">
        <ele>199.1</ele>
        <time>2020-02-19T14:50:28Z</time>
      </trkpt>
      <trkpt lat="43.41889" lon="6.49887">
        <ele>198.9</ele>
        <time>2020-02-19T14:50:35Z</time>
      </trkpt>
      <trkpt lat="43.41896" lon="6.49892">
        <ele>198.7</ele>
        <time>2020-02-19T14:50:41Z</time>
      </trkpt>
      <trkpt lat="43.41903" lon="6.49899">
        <ele>198.5</ele>
        <time>2020-02-19T14:50:47Z</time>
      </trkpt>
      <trkpt lat="43.4191" lon="6.49908">
        <ele>198.2</ele>
        <time>2020-02-19T14:50:54Z</time>
      </trkpt>
      <trkpt lat="43.41911" lon="6.49909">
        <ele>198.2</ele>
        <time>2020-02-19T14:50:55Z</time>
      </trkpt>
      <trkpt lat="43.41921" lon="6.49926">
        <ele>198.3</ele>
        <time>2020-02-19T14:51:08Z</time>
      </trkpt>
      <trkpt lat="43.41926" lon="6.49935">
        <ele>198.4</ele>
        <time>2020-02-19T14:51:16Z</time>
      </trkpt>
      <trkpt lat="43.41933" lon="6.4994">
        <ele>198.4</ele>
        <time>2020-02-19T14:51:24Z</time>
      </trkpt>
      <trkpt lat="43.4194" lon="6.49947">
        <ele>198.6</ele>
        <time>2020-02-19T14:51:33Z</time>
      </trkpt>
      <trkpt lat="43.41947" lon="6.49953">
        <ele>198.2</ele>
        <time>2020-02-19T14:51:41Z</time>
      </trkpt>
      <trkpt lat="43.41955" lon="6.49957">
        <ele>197.6</ele>
        <time>2020-02-19T14:51:48Z</time>
      </trkpt>
      <trkpt lat="43.41962" lon="6.49962">
        <ele>197.7</ele>
        <time>2020-02-19T14:51:54Z</time>
      </trkpt>
      <trkpt lat="43.41969" lon="6.49968">
        <ele>197.9</ele>
        <time>2020-02-19T14:52:00Z</time>
      </trkpt>
      <trkpt lat="43.4197" lon="6.49969">
        <ele>197.9</ele>
        <time>2020-02-19T14:52:01Z</time>
      </trkpt>
      <trkpt lat="43.41983" lon="6.4998">
        <ele>197.6</ele>
        <time>2020-02-19T14:52:13Z</time>
      </trkpt>
      <trkpt lat="43.41989" lon="6.49987">
        <ele>197.4</ele>
        <time>2020-02-19T14:52:20Z</time>
      </trkpt>
      <trkpt lat="43.41994" lon="6.49996">
        <ele>197.4</ele>
        <time>2020-02-19T14:52:27Z</time>
      </trkpt>
      <trkpt lat="43.41998" lon="6.50006">
        <ele>197.2</ele>
        <time>2020-02-19T14:52:34Z</time>
      </trkpt>
      <trkpt lat="43.42001" lon="6.50017">
        <ele>196.9</ele>
        <time>2020-02-19T14:52:41Z</time>
      </trkpt>
      <trkpt lat="43.42005" lon="6.50028">
        <ele>196.4</ele>
        <time>2020-02-19T14:52:49Z</time>
      </trkpt>
      <trkpt lat="43.42009" lon="6.50037">
        <ele>196.6</ele>
        <time>2020-02-19T14:52:55Z</time>
      </trkpt>
      <trkpt lat="43.42014" lon="6.50046">
        <ele>197.3</ele>
        <time>2020-02-19T14:53:02Z</time>
      </trkpt>
      <trkpt lat="43.42015" lon="6.50048">
        <ele>197.4</ele>
        <time>2020-02-19T14:53:03Z</time>
      </trkpt>
      <trkpt lat="43.42021" lon="6.50069">
        <ele>196.9</ele>
        <time>2020-02-19T14:53:18Z</time>
      </trkpt>
      <trkpt lat="43.42028" lon="6.50076">
        <ele>196.7</ele>
        <time>2020-02-19T14:53:28Z</time>
      </trkpt>
      <trkpt lat="43.42037" lon="6.50079">
        <ele>196.1</ele>
        <time>2020-02-19T14:53:38Z</time>
      </trkpt>
      <trkpt lat="43.42044" lon="6.50083">
        <ele>195.6</ele>
        <time>2020-02-19T14:53:45Z</time>
      </trkpt>
      <trkpt lat="43.42051" lon="6.5009">
        <ele>195.7</ele>
        <time>2020-02-19T14:53:52Z</time>
      </trkpt>
      <trkpt lat="43.42058" lon="6.50098">
        <ele>195.6</ele>
        <time>2020-02-19T14:53:59Z</time>
      </trkpt>
      <trkpt lat="43.42065" lon="6.50105">
        <ele>195.9</ele>
        <time>2020-02-19T14:54:09Z</time>
      </trkpt>
      <trkpt lat="43.42066" lon="6.50105">
        <ele>195.9</ele>
        <time>2020-02-19T14:54:10Z</time>
      </trkpt>
      <trkpt lat="43.42075" lon="6.5009">
        <ele>194.8</ele>
        <time>2020-02-19T14:54:33Z</time>
      </trkpt>
      <trkpt lat="43.42079" lon="6.5008">
        <ele>194.5</ele>
        <time>2020-02-19T14:54:41Z</time>
      </trkpt>
      <trkpt lat="43.42085" lon="6.50071">
        <ele>194</ele>
        <time>2020-02-19T14:54:49Z</time>
      </trkpt>
      <trkpt lat="43.42092" lon="6.50063">
        <ele>193.9</ele>
        <time>2020-02-19T14:54:57Z</time>
      </trkpt>
      <trkpt lat="43.42099" lon="6.50056">
        <ele>193.4</ele>
        <time>2020-02-19T14:55:05Z</time>
      </trkpt>
      <trkpt lat="43.42105" lon="6.50047">
        <ele>193</ele>
        <time>2020-02-19T14:55:12Z</time>
      </trkpt>
      <trkpt lat="43.42106" lon="6.50046">
        <ele>192.8</ele>
        <time>2020-02-19T14:55:13Z</time>
      </trkpt>
      <trkpt lat="43.42118" lon="6.50031">
        <ele>192.1</ele>
        <time>2020-02-19T14:55:26Z</time>
      </trkpt>
      <trkpt lat="43.42126" lon="6.50029">
        <ele>192.2</ele>
        <time>2020-02-19T14:55:32Z</time>
      </trkpt>
      <trkpt lat="43.42134" lon="6.50031">
        <ele>191.8</ele>
        <time>2020-02-19T14:55:39Z</time>
      </trkpt>
      <trkpt lat="43.42143" lon="6.50035">
        <ele>191</ele>
        <time>2020-02-19T14:55:47Z</time>
      </trkpt>
      <trkpt lat="43.4215" lon="6.50042">
        <ele>189.9</ele>
        <time>2020-02-19T14:55:55Z</time>
      </trkpt>
      <trkpt lat="43.42153" lon="6.50053">
        <ele>188.5</ele>
        <time>2020-02-19T14:56:03Z</time>
      </trkpt>
      <trkpt lat="43.42157" lon="6.50063">
        <ele>187.1</ele>
        <time>2020-02-19T14:56:10Z</time>
      </trkpt>
      <trkpt lat="43.42161" lon="6.50073">
        <ele>186</ele>
        <time>2020-02-19T14:56:17Z</time>
      </trkpt>
      <trkpt lat="43.42162" lon="6.50075">
        <ele>185.9</ele>
        <time>2020-02-19T14:56:18Z</time>
      </trkpt>
      <trkpt lat="43.42173" lon="6.5009">
        <ele>185.3</ele>
        <time>2020-02-19T14:56:33Z</time>
      </trkpt>
      <trkpt lat="43.4218" lon="6.50098">
        <ele>185.3</ele>
        <time>2020-02-19T14:56:41Z</time>
      </trkpt>
      <trkpt lat="43.42186" lon="6.50105">
        <ele>185.4</ele>
        <time>2020-02-19T14:56:48Z</time>
      </trkpt>
      <trkpt lat="43.42192" lon="6.50111">
        <ele>185.8</ele>
        <time>2020-02-19T14:56:55Z</time>
      </trkpt>
      <trkpt lat="43.42199" lon="6.50117">
        <ele>185.3</ele>
        <time>2020-02-19T14:57:03Z</time>
      </trkpt>
      <trkpt lat="43.42207" lon="6.50123">
        <ele>185.2</ele>
        <time>2020-02-19T14:57:10Z</time>
      </trkpt>
      <trkpt lat="43.42214" lon="6.50128">
        <ele>185.1</ele>
        <time>2020-02-19T14:57:17Z</time>
      </trkpt>
      <trkpt lat="43.42222" lon="6.50134">
        <ele>184.7</ele>
        <time>2020-02-19T14:57:25Z</time>
      </trkpt>
      <trkpt lat="43.42223" lon="6.50135">
        <ele>184.7</ele>
        <time>2020-02-19T14:57:26Z</time>
      </trkpt>
      <trkpt lat="43.42235" lon="6.50148">
        <ele>184.4</ele>
        <time>2020-02-19T14:57:38Z</time>
      </trkpt>
      <trkpt lat="43.42241" lon="6.50157">
        <ele>184.1</ele>
        <time>2020-02-19T14:57:45Z</time>
      </trkpt>
      <trkpt lat="43.42247" lon="6.50165">
        <ele>184.5</ele>
        <time>2020-02-19T14:57:51Z</time>
      </trkpt>
      <trkpt lat="43.42252" lon="6.50174">
        <ele>184.8</ele>
        <time>2020-02-19T14:57:57Z</time>
      </trkpt>
      <trkpt lat="43.42256" lon="6.50185">
        <ele>185.7</ele>
        <time>2020-02-19T14:58:04Z</time>
      </trkpt>
      <trkpt lat="43.42258" lon="6.50196">
        <ele>186.6</ele>
        <time>2020-02-19T14:58:13Z</time>
      </trkpt>
      <trkpt lat="43.42258" lon="6.50208">
        <ele>187.5</ele>
        <time>2020-02-19T14:58:21Z</time>
      </trkpt>
      <trkpt lat="43.4226" lon="6.5022">
        <ele>187.8</ele>
        <time>2020-02-19T14:58:30Z</time>
      </trkpt>
      <trkpt lat="43.4226" lon="6.5022">
        <ele>187.9</ele>
        <time>2020-02-19T14:58:31Z</time>
      </trkpt>
      <trkpt lat="43.4227" lon="6.50239">
        <ele>188.4</ele>
        <time>2020-02-19T14:58:47Z</time>
      </trkpt>
      <trkpt lat="43.42274" lon="6.5025">
        <ele>188.5</ele>
        <time>2020-02-19T14:58:54Z</time>
      </trkpt>
      <trkpt lat="43.42276" lon="6.50261">
        <ele>188.4</ele>
        <time>2020-02-19T14:59:01Z</time>
      </trkpt>
      <trkpt lat="43.42279" lon="6.50272">
        <ele>188.2</ele>
        <time>2020-02-19T14:59:08Z</time>
      </trkpt>
      <trkpt lat="43.4228" lon="6.50283">
        <ele>188.3</ele>
        <time>2020-02-19T14:59:13Z</time>
      </trkpt>
      <trkpt lat="43.42282" lon="6.50295">
        <ele>188.2</ele>
        <time>2020-02-19T14:59:22Z</time>
      </trkpt>
      <trkpt lat="43.42286" lon="6.50304">
        <ele>188</ele>
        <time>2020-02-19T14:59:30Z</time>
      </trkpt>
      <trkpt lat="43.42289" lon="6.50314">
        <ele>187.8</ele>
        <time>2020-02-19T14:59:36Z</time>
      </trkpt>
      <trkpt lat="43.42289" lon="6.50316">
        <ele>187.8</ele>
        <time>2020-02-19T14:59:37Z</time>
      </trkpt>
      <trkpt lat="43.4229" lon="6.50337">
        <ele>187.1</ele>
        <time>2020-02-19T14:59:50Z</time>
      </trkpt>
      <trkpt lat="43.4229" lon="6.50349">
        <ele>186.9</ele>
        <time>2020-02-19T14:59:57Z</time>
      </trkpt>
      <trkpt lat="43.42295" lon="6.50358">
        <ele>187.1</ele>
        <time>2020-02-19T15:00:12Z</time>
      </trkpt>
      <trkpt lat="43.42302" lon="6.50352">
        <ele>186.9</ele>
        <time>2020-02-19T15:00:24Z</time>
      </trkpt>
      <trkpt lat="43.42309" lon="6.50344">
        <ele>186.6</ele>
        <time>2020-02-19T15:00:34Z</time>
      </trkpt>
      <trkpt lat="43.42316" lon="6.50336">
        <ele>186.3</ele>
        <time>2020-02-19T15:00:42Z</time>
      </trkpt>
      <trkpt lat="43.42317" lon="6.50336">
        <ele>186.3</ele>
        <time>2020-02-19T15:00:43Z</time>
      </trkpt>
      <trkpt lat="43.42326" lon="6.5032">
        <ele>185.6</ele>
        <time>2020-02-19T15:00:58Z</time>
      </trkpt>
      <trkpt lat="43.42326" lon="6.50309">
        <ele>185.6</ele>
        <time>2020-02-19T15:01:06Z</time>
      </trkpt>
      <trkpt lat="43.42329" lon="6.50299">
        <ele>185.7</ele>
        <time>2020-02-19T15:01:13Z</time>
      </trkpt>
      <trkpt lat="43.42334" lon="6.5029">
        <ele>185.3</ele>
        <time>2020-02-19T15:01:19Z</time>
      </trkpt>
      <trkpt lat="43.4234" lon="6.50282">
        <ele>184.9</ele>
        <time>2020-02-19T15:01:26Z</time>
      </trkpt>
      <trkpt lat="43.42347" lon="6.50274">
        <ele>183.6</ele>
        <time>2020-02-19T15:02:11Z</time>
      </trkpt>
      <trkpt lat="43.42347" lon="6.50274">
        <ele>183.6</ele>
        <time>2020-02-19T15:02:12Z</time>
      </trkpt>
      <trkpt lat="43.42352" lon="6.50265">
        <ele>183.6</ele>
        <time>2020-02-19T15:04:59Z</time>
      </trkpt>
      <trkpt lat="43.42353" lon="6.50265">
        <ele>183.6</ele>
        <time>2020-02-19T15:05:00Z</time>
      </trkpt>
      <trkpt lat="43.42365" lon="6.50251">
        <ele>183.1</ele>
        <time>2020-02-19T15:05:17Z</time>
      </trkpt>
      <trkpt lat="43.4237" lon="6.50242">
        <ele>183</ele>
        <time>2020-02-19T15:05:25Z</time>
      </trkpt>
      <trkpt lat="43.42373" lon="6.50232">
        <ele>183</ele>
        <time>2020-02-19T15:05:32Z</time>
      </trkpt>
      <trkpt lat="43.42376" lon="6.50221">
        <ele>182.8</ele>
        <time>2020-02-19T15:05:38Z</time>
      </trkpt>
      <trkpt lat="43.42378" lon="6.5021">
        <ele>182.5</ele>
        <time>2020-02-19T15:05:45Z</time>
      </trkpt>
      <trkpt lat="43.42381" lon="6.50199">
        <ele>181.7</ele>
        <time>2020-02-19T15:05:52Z</time>
      </trkpt>
      <trkpt lat="43.42384" lon="6.50188">
        <ele>181.5</ele>
        <time>2020-02-19T15:05:59Z</time>
      </trkpt>
      <trkpt lat="43.42387" lon="6.50179">
        <ele>181.2</ele>
        <time>2020-02-19T15:06:05Z</time>
      </trkpt>
      <trkpt lat="43.42388" lon="6.50177">
        <ele>181.2</ele>
        <time>2020-02-19T15:06:06Z</time>
      </trkpt>
      <trkpt lat="43.42393" lon="6.50158">
        <ele>180.8</ele>
        <time>2020-02-19T15:06:19Z</time>
      </trkpt>
      <trkpt lat="43.42394" lon="6.50148">
        <ele>180.8</ele>
        <time>2020-02-19T15:06:25Z</time>
      </trkpt>
      <trkpt lat="43.42395" lon="6.50137">
        <ele>180.5</ele>
        <time>2020-02-19T15:06:31Z</time>
      </trkpt>
      <trkpt lat="43.42396" lon="6.50125">
        <ele>180.1</ele>
        <time>2020-02-19T15:06:38Z</time>
      </trkpt>
      <trkpt lat="43.42399" lon="6.50115">
        <ele>180.1</ele>
        <time>2020-02-19T15:06:45Z</time>
      </trkpt>
      <trkpt lat="43.42407" lon="6.50109">
        <ele>180</ele>
        <time>2020-02-19T15:06:53Z</time>
      </trkpt>
      <trkpt lat="43.42416" lon="6.50109">
        <ele>179.4</ele>
        <time>2020-02-19T15:07:01Z</time>
      </trkpt>
      <trkpt lat="43.42424" lon="6.50111">
        <ele>178.3</ele>
        <time>2020-02-19T15:07:09Z</time>
      </trkpt>
      <trkpt lat="43.42425" lon="6.50111">
        <ele>178.2</ele>
        <time>2020-02-19T15:07:10Z</time>
      </trkpt>
      <trkpt lat="43.42441" lon="6.50119">
        <ele>177</ele>
        <time>2020-02-19T15:07:28Z</time>
      </trkpt>
      <trkpt lat="43.42447" lon="6.50127">
        <ele>175.7</ele>
        <time>2020-02-19T15:07:38Z</time>
      </trkpt>
      <trkpt lat="43.42454" lon="6.50135">
        <ele>174.7</ele>
        <time>2020-02-19T15:07:47Z</time>
      </trkpt>
      <trkpt lat="43.42461" lon="6.5014">
        <ele>174.1</ele>
        <time>2020-02-19T15:07:54Z</time>
      </trkpt>
      <trkpt lat="43.42469" lon="6.50144">
        <ele>173.9</ele>
        <time>2020-02-19T15:08:02Z</time>
      </trkpt>
      <trkpt lat="43.42477" lon="6.50146">
        <ele>173.7</ele>
        <time>2020-02-19T15:08:10Z</time>
      </trkpt>
      <trkpt lat="43.42486" lon="6.50149">
        <ele>173.3</ele>
        <time>2020-02-19T15:08:18Z</time>
      </trkpt>
      <trkpt lat="43.42486" lon="6.5015">
        <ele>173.3</ele>
        <time>2020-02-19T15:08:19Z</time>
      </trkpt>
      <trkpt lat="43.42496" lon="6.50168">
        <ele>172.4</ele>
        <time>2020-02-19T15:08:35Z</time>
      </trkpt>
      <trkpt lat="43.42501" lon="6.50178">
        <ele>171.8</ele>
        <time>2020-02-19T15:08:43Z</time>
      </trkpt>
      <trkpt lat="43.42504" lon="6.50188">
        <ele>171.6</ele>
        <time>2020-02-19T15:08:52Z</time>
      </trkpt>
      <trkpt lat="43.4251" lon="6.50197">
        <ele>171.3</ele>
        <time>2020-02-19T15:09:03Z</time>
      </trkpt>
      <trkpt lat="43.42517" lon="6.50202">
        <ele>171.2</ele>
        <time>2020-02-19T15:09:09Z</time>
      </trkpt>
      <trkpt lat="43.42523" lon="6.5021">
        <ele>171.1</ele>
        <time>2020-02-19T15:09:16Z</time>
      </trkpt>
      <trkpt lat="43.42527" lon="6.50219">
        <ele>170.7</ele>
        <time>2020-02-19T15:09:24Z</time>
      </trkpt>
      <trkpt lat="43.42528" lon="6.50221">
        <ele>170.7</ele>
        <time>2020-02-19T15:09:25Z</time>
      </trkpt>
      <trkpt lat="43.42543" lon="6.5023">
        <ele>170.2</ele>
        <time>2020-02-19T15:09:42Z</time>
      </trkpt>
      <trkpt lat="43.42552" lon="6.50232">
        <ele>169.8</ele>
        <time>2020-02-19T15:09:50Z</time>
      </trkpt>
      <trkpt lat="43.4256" lon="6.50233">
        <ele>169.6</ele>
        <time>2020-02-19T15:09:57Z</time>
      </trkpt>
      <trkpt lat="43.42568" lon="6.50234">
        <ele>168.9</ele>
        <time>2020-02-19T15:10:04Z</time>
      </trkpt>
      <trkpt lat="43.42576" lon="6.50236">
        <ele>168.8</ele>
        <time>2020-02-19T15:10:11Z</time>
      </trkpt>
      <trkpt lat="43.42584" lon="6.5024">
        <ele>168.5</ele>
        <time>2020-02-19T15:10:18Z</time>
      </trkpt>
      <trkpt lat="43.42592" lon="6.50243">
        <ele>168.2</ele>
        <time>2020-02-19T15:10:25Z</time>
      </trkpt>
      <trkpt lat="43.42598" lon="6.50251">
        <ele>167.6</ele>
        <time>2020-02-19T15:10:32Z</time>
      </trkpt>
      <trkpt lat="43.42598" lon="6.50252">
        <ele>167.4</ele>
        <time>2020-02-19T15:10:33Z</time>
      </trkpt>
      <trkpt lat="43.42598" lon="6.50275">
        <ele>164.9</ele>
        <time>2020-02-19T15:10:53Z</time>
      </trkpt>
      <trkpt lat="43.42596" lon="6.50285">
        <ele>164.1</ele>
        <time>2020-02-19T15:11:01Z</time>
      </trkpt>
      <trkpt lat="43.42594" lon="6.50296">
        <ele>163.6</ele>
        <time>2020-02-19T15:11:09Z</time>
      </trkpt>
      <trkpt lat="43.42594" lon="6.50308">
        <ele>163.3</ele>
        <time>2020-02-19T15:11:17Z</time>
      </trkpt>
      <trkpt lat="43.42595" lon="6.50319">
        <ele>162.3</ele>
        <time>2020-02-19T15:11:25Z</time>
      </trkpt>
      <trkpt lat="43.426" lon="6.50327">
        <ele>161.5</ele>
        <time>2020-02-19T15:11:32Z</time>
      </trkpt>
      <trkpt lat="43.42607" lon="6.50334">
        <ele>160.8</ele>
        <time>2020-02-19T15:11:39Z</time>
      </trkpt>
      <trkpt lat="43.42608" lon="6.50335">
        <ele>160.7</ele>
        <time>2020-02-19T15:11:40Z</time>
      </trkpt>
      <trkpt lat="43.42622" lon="6.50346">
        <ele>160.3</ele>
        <time>2020-02-19T15:11:55Z</time>
      </trkpt>
      <trkpt lat="43.42629" lon="6.50352">
        <ele>159.8</ele>
        <time>2020-02-19T15:12:02Z</time>
      </trkpt>
      <trkpt lat="43.42636" lon="6.5036">
        <ele>159.5</ele>
        <time>2020-02-19T15:12:10Z</time>
      </trkpt>
      <trkpt lat="43.42642" lon="6.50368">
        <ele>159.1</ele>
        <time>2020-02-19T15:12:19Z</time>
      </trkpt>
      <trkpt lat="43.42647" lon="6.50377">
        <ele>158.8</ele>
        <time>2020-02-19T15:12:27Z</time>
      </trkpt>
      <trkpt lat="43.42652" lon="6.50386">
        <ele>158.4</ele>
        <time>2020-02-19T15:12:34Z</time>
      </trkpt>
      <trkpt lat="43.42658" lon="6.50396">
        <ele>158.4</ele>
        <time>2020-02-19T15:12:42Z</time>
      </trkpt>
      <trkpt lat="43.42658" lon="6.50397">
        <ele>158.3</ele>
        <time>2020-02-19T15:12:43Z</time>
      </trkpt>
      <trkpt lat="43.42663" lon="6.50418">
        <ele>156.4</ele>
        <time>2020-02-19T15:12:59Z</time>
      </trkpt>
      <trkpt lat="43.42666" lon="6.5043">
        <ele>157.3</ele>
        <time>2020-02-19T15:13:07Z</time>
      </trkpt>
      <trkpt lat="43.42669" lon="6.50441">
        <ele>157</ele>
        <time>2020-02-19T15:13:16Z</time>
      </trkpt>
      <trkpt lat="43.42672" lon="6.50453">
        <ele>156.7</ele>
        <time>2020-02-19T15:13:25Z</time>
      </trkpt>
      <trkpt lat="43.42674" lon="6.50465">
        <ele>156.3</ele>
        <time>2020-02-19T15:13:34Z</time>
      </trkpt>
      <trkpt lat="43.42676" lon="6.50476">
        <ele>155.9</ele>
        <time>2020-02-19T15:13:43Z</time>
      </trkpt>
      <trkpt lat="43.42682" lon="6.50484">
        <ele>156</ele>
        <time>2020-02-19T15:13:50Z</time>
      </trkpt>
      <trkpt lat="43.42683" lon="6.50485">
        <ele>156.1</ele>
        <time>2020-02-19T15:13:51Z</time>
      </trkpt>
      <trkpt lat="43.42695" lon="6.50497">
        <ele>156.1</ele>
        <time>2020-02-19T15:14:05Z</time>
      </trkpt>
      <trkpt lat="43.42701" lon="6.50505">
        <ele>155.1</ele>
        <time>2020-02-19T15:14:13Z</time>
      </trkpt>
      <trkpt lat="43.42707" lon="6.50514">
        <ele>154.4</ele>
        <time>2020-02-19T15:14:22Z</time>
      </trkpt>
      <trkpt lat="43.42714" lon="6.50521">
        <ele>153.4</ele>
        <time>2020-02-19T15:14:30Z</time>
      </trkpt>
      <trkpt lat="43.42721" lon="6.50527">
        <ele>152.8</ele>
        <time>2020-02-19T15:14:39Z</time>
      </trkpt>
      <trkpt lat="43.4273" lon="6.5053">
        <ele>152.6</ele>
        <time>2020-02-19T15:14:50Z</time>
      </trkpt>
      <trkpt lat="43.42738" lon="6.50534">
        <ele>152.4</ele>
        <time>2020-02-19T15:15:07Z</time>
      </trkpt>
      <trkpt lat="43.42738" lon="6.50534">
        <ele>152.4</ele>
        <time>2020-02-19T15:15:08Z</time>
      </trkpt>
      <trkpt lat="43.42755" lon="6.50534">
        <ele>151.5</ele>
        <time>2020-02-19T15:19:10Z</time>
      </trkpt>
      <trkpt lat="43.42756" lon="6.50534">
        <ele>151.4</ele>
        <time>2020-02-19T15:19:11Z</time>
      </trkpt>
      <trkpt lat="43.42772" lon="6.50529">
        <ele>149.1</ele>
        <time>2020-02-19T15:19:29Z</time>
      </trkpt>
      <trkpt lat="43.4278" lon="6.50528">
        <ele>148.3</ele>
        <time>2020-02-19T15:19:38Z</time>
      </trkpt>
      <trkpt lat="43.42788" lon="6.50532">
        <ele>147.7</ele>
        <time>2020-02-19T15:19:47Z</time>
      </trkpt>
      <trkpt lat="43.42796" lon="6.50537">
        <ele>147.1</ele>
        <time>2020-02-19T15:19:55Z</time>
      </trkpt>
      <trkpt lat="43.42804" lon="6.5054">
        <ele>146.4</ele>
        <time>2020-02-19T15:20:02Z</time>
      </trkpt>
      <trkpt lat="43.42812" lon="6.50543">
        <ele>145.8</ele>
        <time>2020-02-19T15:20:10Z</time>
      </trkpt>
      <trkpt lat="43.4282" lon="6.50546">
        <ele>144.3</ele>
        <time>2020-02-19T15:20:19Z</time>
      </trkpt>
      <trkpt lat="43.42821" lon="6.50546">
        <ele>144.1</ele>
        <time>2020-02-19T15:20:20Z</time>
      </trkpt>
      <trkpt lat="43.42837" lon="6.50553">
        <ele>142.9</ele>
        <time>2020-02-19T15:20:38Z</time>
      </trkpt>
      <trkpt lat="43.42845" lon="6.50556">
        <ele>142.3</ele>
        <time>2020-02-19T15:20:46Z</time>
      </trkpt>
      <trkpt lat="43.42853" lon="6.5056">
        <ele>141.4</ele>
        <time>2020-02-19T15:20:54Z</time>
      </trkpt>
      <trkpt lat="43.42862" lon="6.50563">
        <ele>140.4</ele>
        <time>2020-02-19T15:21:03Z</time>
      </trkpt>
      <trkpt lat="43.4287" lon="6.50565">
        <ele>139.7</ele>
        <time>2020-02-19T15:21:12Z</time>
      </trkpt>
      <trkpt lat="43.42879" lon="6.50565">
        <ele>138.6</ele>
        <time>2020-02-19T15:21:20Z</time>
      </trkpt>
      <trkpt lat="43.42887" lon="6.50566">
        <ele>137.6</ele>
        <time>2020-02-19T15:21:27Z</time>
      </trkpt>
      <trkpt lat="43.42888" lon="6.50567">
        <ele>137.4</ele>
        <time>2020-02-19T15:21:28Z</time>
      </trkpt>
      <trkpt lat="43.42904" lon="6.50565">
        <ele>135</ele>
        <time>2020-02-19T15:21:46Z</time>
      </trkpt>
      <trkpt lat="43.42912" lon="6.50565">
        <ele>134.3</ele>
        <time>2020-02-19T15:21:53Z</time>
      </trkpt>
      <trkpt lat="43.42921" lon="6.50565">
        <ele>133.4</ele>
        <time>2020-02-19T15:22:00Z</time>
      </trkpt>
      <trkpt lat="43.42929" lon="6.50566">
        <ele>132.4</ele>
        <time>2020-02-19T15:22:07Z</time>
      </trkpt>
      <trkpt lat="43.42937" lon="6.50569">
        <ele>131.1</ele>
        <time>2020-02-19T15:22:15Z</time>
      </trkpt>
      <trkpt lat="43.42945" lon="6.50574">
        <ele>130.5</ele>
        <time>2020-02-19T15:22:23Z</time>
      </trkpt>
      <trkpt lat="43.42952" lon="6.50578">
        <ele>130.6</ele>
        <time>2020-02-19T15:22:30Z</time>
      </trkpt>
      <trkpt lat="43.42953" lon="6.50579">
        <ele>130.5</ele>
        <time>2020-02-19T15:22:31Z</time>
      </trkpt>
      <trkpt lat="43.42968" lon="6.50586">
        <ele>128.3</ele>
        <time>2020-02-19T15:22:45Z</time>
      </trkpt>
      <trkpt lat="43.42975" lon="6.50593">
        <ele>128</ele>
        <time>2020-02-19T15:22:52Z</time>
      </trkpt>
      <trkpt lat="43.4298" lon="6.50602">
        <ele>127.7</ele>
        <time>2020-02-19T15:22:59Z</time>
      </trkpt>
      <trkpt lat="43.42985" lon="6.50612">
        <ele>127.6</ele>
        <time>2020-02-19T15:23:07Z</time>
      </trkpt>
      <trkpt lat="43.42991" lon="6.50621">
        <ele>127</ele>
        <time>2020-02-19T15:23:15Z</time>
      </trkpt>
      <trkpt lat="43.42994" lon="6.50632">
        <ele>126.4</ele>
        <time>2020-02-19T15:23:22Z</time>
      </trkpt>
      <trkpt lat="43.42997" lon="6.50642">
        <ele>126.1</ele>
        <time>2020-02-19T15:23:29Z</time>
      </trkpt>
      <trkpt lat="43.42998" lon="6.50654">
        <ele>126</ele>
        <time>2020-02-19T15:23:36Z</time>
      </trkpt>
      <trkpt lat="43.42999" lon="6.50656">
        <ele>126</ele>
        <time>2020-02-19T15:23:36Z</time>
      </trkpt>
      <trkpt lat="43.43001" lon="6.50677">
        <ele>125</ele>
        <time>2020-02-19T15:23:52Z</time>
      </trkpt>
      <trkpt lat="43.43003" lon="6.50688">
        <ele>124.6</ele>
        <time>2020-02-19T15:23:59Z</time>
      </trkpt>
      <trkpt lat="43.43007" lon="6.50699">
        <ele>123.9</ele>
        <time>2020-02-19T15:24:06Z</time>
      </trkpt>
      <trkpt lat="43.43013" lon="6.50707">
        <ele>122.8</ele>
        <time>2020-02-19T15:24:13Z</time>
      </trkpt>
      <trkpt lat="43.43018" lon="6.50717">
        <ele>122.6</ele>
        <time>2020-02-19T15:24:21Z</time>
      </trkpt>
      <trkpt lat="43.43023" lon="6.50726">
        <ele>121.8</ele>
        <time>2020-02-19T15:24:28Z</time>
      </trkpt>
      <trkpt lat="43.43028" lon="6.50736">
        <ele>120.7</ele>
        <time>2020-02-19T15:24:35Z</time>
      </trkpt>
      <trkpt lat="43.43033" lon="6.50745">
        <ele>119.4</ele>
        <time>2020-02-19T15:24:42Z</time>
      </trkpt>
      <trkpt lat="43.43033" lon="6.50747">
        <ele>119.3</ele>
        <time>2020-02-19T15:24:43Z</time>
      </trkpt>
      <trkpt lat="43.43044" lon="6.50762">
        <ele>117.5</ele>
        <time>2020-02-19T15:24:57Z</time>
      </trkpt>
      <trkpt lat="43.43049" lon="6.50772">
        <ele>116.5</ele>
        <time>2020-02-19T15:25:05Z</time>
      </trkpt>
      <trkpt lat="43.43052" lon="6.50782">
        <ele>115.2</ele>
        <time>2020-02-19T15:25:13Z</time>
      </trkpt>
      <trkpt lat="43.43055" lon="6.50794">
        <ele>114.7</ele>
        <time>2020-02-19T15:25:21Z</time>
      </trkpt>
      <trkpt lat="43.43057" lon="6.50805">
        <ele>113.7</ele>
        <time>2020-02-19T15:25:29Z</time>
      </trkpt>
      <trkpt lat="43.43059" lon="6.50816">
        <ele>113.2</ele>
        <time>2020-02-19T15:25:36Z</time>
      </trkpt>
      <trkpt lat="43.4306" lon="6.50827">
        <ele>112.6</ele>
        <time>2020-02-19T15:25:44Z</time>
      </trkpt>
      <trkpt lat="43.4306" lon="6.50828">
        <ele>112.6</ele>
        <time>2020-02-19T15:25:45Z</time>
      </trkpt>
      <trkpt lat="43.43055" lon="6.50849">
        <ele>111</ele>
        <time>2020-02-19T15:26:03Z</time>
      </trkpt>
      <trkpt lat="43.43046" lon="6.50849">
        <ele>109.9</ele>
        <time>2020-02-19T15:27:37Z</time>
      </trkpt>
      <trkpt lat="43.43046" lon="6.50849">
        <ele>109.8</ele>
        <time>2020-02-19T15:27:38Z</time>
      </trkpt>
      <trkpt lat="43.43033" lon="6.50833">
        <ele>109.4</ele>
        <time>2020-02-19T15:27:55Z</time>
      </trkpt>
      <trkpt lat="43.43028" lon="6.50824">
        <ele>109</ele>
        <time>2020-02-19T15:28:05Z</time>
      </trkpt>
      <trkpt lat="43.43022" lon="6.50816">
        <ele>108.8</ele>
        <time>2020-02-19T15:28:13Z</time>
      </trkpt>
      <trkpt lat="43.43016" lon="6.5081">
        <ele>108.4</ele>
        <time>2020-02-19T15:28:20Z</time>
      </trkpt>
      <trkpt lat="43.43008" lon="6.50805">
        <ele>107.9</ele>
        <time>2020-02-19T15:28:28Z</time>
      </trkpt>
      <trkpt lat="43.43" lon="6.508">
        <ele>107.6</ele>
        <time>2020-02-19T15:28:36Z</time>
      </trkpt>
      <trkpt lat="43.42992" lon="6.50797">
        <ele>107.1</ele>
        <time>2020-02-19T15:28:44Z</time>
      </trkpt>
      <trkpt lat="43.42991" lon="6.50797">
        <ele>107</ele>
        <time>2020-02-19T15:28:45Z</time>
      </trkpt>
      <trkpt lat="43.42976" lon="6.50791">
        <ele>106.9</ele>
        <time>2020-02-19T15:29:02Z</time>
      </trkpt>
      <trkpt lat="43.42968" lon="6.50788">
        <ele>106.8</ele>
        <time>2020-02-19T15:29:08Z</time>
      </trkpt>
      <trkpt lat="43.4296" lon="6.50787">
        <ele>106.6</ele>
        <time>2020-02-19T15:29:16Z</time>
      </trkpt>
      <trkpt lat="43.42951" lon="6.50784">
        <ele>106.9</ele>
        <time>2020-02-19T15:29:24Z</time>
      </trkpt>
      <trkpt lat="43.42944" lon="6.50779">
        <ele>106.9</ele>
        <time>2020-02-19T15:29:32Z</time>
      </trkpt>
      <trkpt lat="43.42936" lon="6.50777">
        <ele>106.6</ele>
        <time>2020-02-19T15:29:38Z</time>
      </trkpt>
      <trkpt lat="43.42928" lon="6.50775">
        <ele>106.3</ele>
        <time>2020-02-19T15:29:44Z</time>
      </trkpt>
      <trkpt lat="43.4292" lon="6.50773">
        <ele>105.6</ele>
        <time>2020-02-19T15:29:51Z</time>
      </trkpt>
      <trkpt lat="43.42919" lon="6.50773">
        <ele>105.6</ele>
        <time>2020-02-19T15:29:52Z</time>
      </trkpt>
      <trkpt lat="43.42904" lon="6.50773">
        <ele>104.7</ele>
        <time>2020-02-19T15:30:06Z</time>
      </trkpt>
      <trkpt lat="43.42895" lon="6.50771">
        <ele>104.4</ele>
        <time>2020-02-19T15:30:14Z</time>
      </trkpt>
      <trkpt lat="43.42886" lon="6.5077">
        <ele>103.6</ele>
        <time>2020-02-19T15:30:23Z</time>
      </trkpt>
      <trkpt lat="43.42878" lon="6.50773">
        <ele>103.3</ele>
        <time>2020-02-19T15:30:29Z</time>
      </trkpt>
      <trkpt lat="43.4287" lon="6.50774">
        <ele>102.8</ele>
        <time>2020-02-19T15:30:35Z</time>
      </trkpt>
      <trkpt lat="43.42862" lon="6.50773">
        <ele>102.3</ele>
        <time>2020-02-19T15:30:42Z</time>
      </trkpt>
      <trkpt lat="43.42854" lon="6.5077">
        <ele>102.1</ele>
        <time>2020-02-19T15:30:49Z</time>
      </trkpt>
      <trkpt lat="43.42846" lon="6.50767">
        <ele>102.1</ele>
        <time>2020-02-19T15:30:55Z</time>
      </trkpt>
      <trkpt lat="43.42845" lon="6.50767">
        <ele>102.1</ele>
        <time>2020-02-19T15:30:56Z</time>
      </trkpt>
      <trkpt lat="43.42831" lon="6.50758">
        <ele>101.3</ele>
        <time>2020-02-19T15:31:09Z</time>
      </trkpt>
      <trkpt lat="43.42823" lon="6.50753">
        <ele>101.1</ele>
        <time>2020-02-19T15:31:16Z</time>
      </trkpt>
      <trkpt lat="43.42814" lon="6.5075">
        <ele>101.1</ele>
        <time>2020-02-19T15:31:24Z</time>
      </trkpt>
      <trkpt lat="43.42806" lon="6.5075">
        <ele>101.3</ele>
        <time>2020-02-19T15:31:31Z</time>
      </trkpt>
      <trkpt lat="43.42797" lon="6.50749">
        <ele>101.5</ele>
        <time>2020-02-19T15:31:37Z</time>
      </trkpt>
      <trkpt lat="43.42789" lon="6.50749">
        <ele>101.1</ele>
        <time>2020-02-19T15:31:44Z</time>
      </trkpt>
      <trkpt lat="43.42781" lon="6.5075">
        <ele>100.7</ele>
        <time>2020-02-19T15:31:50Z</time>
      </trkpt>
      <trkpt lat="43.42773" lon="6.50751">
        <ele>100.1</ele>
        <time>2020-02-19T15:31:56Z</time>
      </trkpt>
      <trkpt lat="43.42765" lon="6.50748">
        <ele>99.8</ele>
        <time>2020-02-19T15:32:02Z</time>
      </trkpt>
      <trkpt lat="43.42764" lon="6.50749">
        <ele>99.7</ele>
        <time>2020-02-19T15:32:03Z</time>
      </trkpt>
      <trkpt lat="43.42755" lon="6.50763">
        <ele>97.8</ele>
        <time>2020-02-19T15:32:32Z</time>
      </trkpt>
      <trkpt lat="43.42763" lon="6.50764">
        <ele>96.9</ele>
        <time>2020-02-19T15:32:41Z</time>
      </trkpt>
      <trkpt lat="43.4277" lon="6.50769">
        <ele>96</ele>
        <time>2020-02-19T15:32:48Z</time>
      </trkpt>
      <trkpt lat="43.42777" lon="6.50775">
        <ele>96.3</ele>
        <time>2020-02-19T15:32:55Z</time>
      </trkpt>
      <trkpt lat="43.42784" lon="6.50781">
        <ele>96.4</ele>
        <time>2020-02-19T15:33:02Z</time>
      </trkpt>
      <trkpt lat="43.42792" lon="6.50786">
        <ele>96.7</ele>
        <time>2020-02-19T15:33:09Z</time>
      </trkpt>
      <trkpt lat="43.42793" lon="6.50787">
        <ele>96.7</ele>
        <time>2020-02-19T15:33:10Z</time>
      </trkpt>
      <trkpt lat="43.42805" lon="6.508">
        <ele>96</ele>
        <time>2020-02-19T15:33:24Z</time>
      </trkpt>
      <trkpt lat="43.42811" lon="6.50808">
        <ele>95.3</ele>
        <time>2020-02-19T15:33:32Z</time>
      </trkpt>
      <trkpt lat="43.42818" lon="6.50816">
        <ele>94.6</ele>
        <time>2020-02-19T15:33:39Z</time>
      </trkpt>
      <trkpt lat="43.42824" lon="6.50823">
        <ele>94.1</ele>
        <time>2020-02-19T15:33:46Z</time>
      </trkpt>
      <trkpt lat="43.42831" lon="6.50831">
        <ele>93.3</ele>
        <time>2020-02-19T15:33:53Z</time>
      </trkpt>
      <trkpt lat="43.42836" lon="6.50839">
        <ele>92.7</ele>
        <time>2020-02-19T15:34:00Z</time>
      </trkpt>
      <trkpt lat="43.4284" lon="6.5085">
        <ele>92.2</ele>
        <time>2020-02-19T15:34:07Z</time>
      </trkpt>
      <trkpt lat="43.42847" lon="6.50857">
        <ele>92.3</ele>
        <time>2020-02-19T15:34:14Z</time>
      </trkpt>
      <trkpt lat="43.42848" lon="6.50857">
        <ele>92.4</ele>
        <time>2020-02-19T15:34:15Z</time>
      </trkpt>
      <trkpt lat="43.42864" lon="6.50858">
        <ele>91.1</ele>
        <time>2020-02-19T15:34:31Z</time>
      </trkpt>
      <trkpt lat="43.42872" lon="6.50858">
        <ele>90.8</ele>
        <time>2020-02-19T15:34:39Z</time>
      </trkpt>
      <trkpt lat="43.42881" lon="6.50858">
        <ele>90.4</ele>
        <time>2020-02-19T15:34:47Z</time>
      </trkpt>
      <trkpt lat="43.4289" lon="6.50858">
        <ele>88.8</ele>
        <time>2020-02-19T15:34:55Z</time>
      </trkpt>
      <trkpt lat="43.42897" lon="6.50861">
        <ele>88.1</ele>
        <time>2020-02-19T15:35:02Z</time>
      </trkpt>
      <trkpt lat="43.42905" lon="6.50863">
        <ele>87.8</ele>
        <time>2020-02-19T15:35:10Z</time>
      </trkpt>
      <trkpt lat="43.42913" lon="6.50868">
        <ele>86.9</ele>
        <time>2020-02-19T15:35:18Z</time>
      </trkpt>
      <trkpt lat="43.42915" lon="6.50869">
        <ele>86.7</ele>
        <time>2020-02-19T15:35:19Z</time>
      </trkpt>
      <trkpt lat="43.42927" lon="6.5088">
        <ele>85.6</ele>
        <time>2020-02-19T15:35:31Z</time>
      </trkpt>
      <trkpt lat="43.42935" lon="6.50885">
        <ele>84.7</ele>
        <time>2020-02-19T15:35:38Z</time>
      </trkpt>
      <trkpt lat="43.42942" lon="6.50893">
        <ele>83</ele>
        <time>2020-02-19T15:35:45Z</time>
      </trkpt>
      <trkpt lat="43.42947" lon="6.50902">
        <ele>81.5</ele>
        <time>2020-02-19T15:35:52Z</time>
      </trkpt>
      <trkpt lat="43.42952" lon="6.5091">
        <ele>79.6</ele>
        <time>2020-02-19T15:35:59Z</time>
      </trkpt>
      <trkpt lat="43.42959" lon="6.50916">
        <ele>77.5</ele>
        <time>2020-02-19T15:36:06Z</time>
      </trkpt>
      <trkpt lat="43.42965" lon="6.50924">
        <ele>76.7</ele>
        <time>2020-02-19T15:36:13Z</time>
      </trkpt>
      <trkpt lat="43.4297" lon="6.50932">
        <ele>75</ele>
        <time>2020-02-19T15:36:19Z</time>
      </trkpt>
      <trkpt lat="43.42971" lon="6.50934">
        <ele>74.8</ele>
        <time>2020-02-19T15:36:20Z</time>
      </trkpt>
      <trkpt lat="43.4298" lon="6.50951">
        <ele>74</ele>
        <time>2020-02-19T15:36:33Z</time>
      </trkpt>
      <trkpt lat="43.42983" lon="6.50962">
        <ele>73.7</ele>
        <time>2020-02-19T15:36:40Z</time>
      </trkpt>
      <trkpt lat="43.42987" lon="6.50973">
        <ele>72.8</ele>
        <time>2020-02-19T15:36:51Z</time>
      </trkpt>
      <trkpt lat="43.42989" lon="6.50985">
        <ele>71.6</ele>
        <time>2020-02-19T15:37:02Z</time>
      </trkpt>
      <trkpt lat="43.42992" lon="6.50996">
        <ele>72</ele>
        <time>2020-02-19T15:37:12Z</time>
      </trkpt>
      <trkpt lat="43.43" lon="6.51001">
        <ele>68.4</ele>
        <time>2020-02-19T15:37:47Z</time>
      </trkpt>
      <trkpt lat="43.43" lon="6.51002">
        <ele>68.4</ele>
        <time>2020-02-19T15:37:48Z</time>
      </trkpt>
      <trkpt lat="43.43005" lon="6.51023">
        <ele>67.2</ele>
        <time>2020-02-19T15:38:04Z</time>
      </trkpt>
      <trkpt lat="43.43007" lon="6.51034">
        <ele>66.3</ele>
        <time>2020-02-19T15:38:11Z</time>
      </trkpt>
      <trkpt lat="43.43007" lon="6.51045">
        <ele>65.3</ele>
        <time>2020-02-19T15:38:17Z</time>
      </trkpt>
      <trkpt lat="43.43007" lon="6.51056">
        <ele>64.8</ele>
        <time>2020-02-19T15:38:23Z</time>
      </trkpt>
      <trkpt lat="43.43008" lon="6.51068">
        <ele>63.6</ele>
        <time>2020-02-19T15:38:36Z</time>
      </trkpt>
      <trkpt lat="43.43014" lon="6.51077">
        <ele>64.8</ele>
        <time>2020-02-19T15:38:55Z</time>
      </trkpt>
      <trkpt lat="43.43015" lon="6.51078">
        <ele>64.8</ele>
        <time>2020-02-19T15:38:56Z</time>
      </trkpt>
      <trkpt lat="43.43013" lon="6.511">
        <ele>64.4</ele>
        <time>2020-02-19T15:40:25Z</time>
      </trkpt>
      <trkpt lat="43.43013" lon="6.51101">
        <ele>64.4</ele>
        <time>2020-02-19T15:40:26Z</time>
      </trkpt>
      <trkpt lat="43.4302" lon="6.51107">
        <ele>64.9</ele>
        <time>2020-02-19T15:43:18Z</time>
      </trkpt>
      <trkpt lat="43.4302" lon="6.51108">
        <ele>64.9</ele>
        <time>2020-02-19T15:43:19Z</time>
      </trkpt>
      <trkpt lat="43.43033" lon="6.51121">
        <ele>65.9</ele>
        <time>2020-02-19T15:43:35Z</time>
      </trkpt>
      <trkpt lat="43.4304" lon="6.51126">
        <ele>66</ele>
        <time>2020-02-19T15:43:42Z</time>
      </trkpt>
      <trkpt lat="43.43047" lon="6.51131">
        <ele>66.1</ele>
        <time>2020-02-19T15:43:50Z</time>
      </trkpt>
      <trkpt lat="43.43055" lon="6.51134">
        <ele>66.2</ele>
        <time>2020-02-19T15:43:56Z</time>
      </trkpt>
      <trkpt lat="43.43063" lon="6.51138">
        <ele>66.5</ele>
        <time>2020-02-19T15:44:02Z</time>
      </trkpt>
      <trkpt lat="43.43072" lon="6.51141">
        <ele>67</ele>
        <time>2020-02-19T15:44:09Z</time>
      </trkpt>
      <trkpt lat="43.4308" lon="6.51141">
        <ele>67.1</ele>
        <time>2020-02-19T15:44:17Z</time>
      </trkpt>
      <trkpt lat="43.43089" lon="6.5114">
        <ele>67.2</ele>
        <time>2020-02-19T15:44:24Z</time>
      </trkpt>
      <trkpt lat="43.4309" lon="6.5114">
        <ele>67.2</ele>
        <time>2020-02-19T15:44:25Z</time>
      </trkpt>
      <trkpt lat="43.43104" lon="6.51133">
        <ele>67.9</ele>
        <time>2020-02-19T15:44:36Z</time>
      </trkpt>
      <trkpt lat="43.43111" lon="6.51126">
        <ele>67.9</ele>
        <time>2020-02-19T15:44:42Z</time>
      </trkpt>
      <trkpt lat="43.43119" lon="6.51121">
        <ele>67.4</ele>
        <time>2020-02-19T15:44:49Z</time>
      </trkpt>
      <trkpt lat="43.43127" lon="6.51117">
        <ele>66.8</ele>
        <time>2020-02-19T15:44:56Z</time>
      </trkpt>
      <trkpt lat="43.43135" lon="6.51112">
        <ele>66.3</ele>
        <time>2020-02-19T15:45:05Z</time>
      </trkpt>
      <trkpt lat="43.43142" lon="6.51106">
        <ele>65.6</ele>
        <time>2020-02-19T15:45:13Z</time>
      </trkpt>
      <trkpt lat="43.43149" lon="6.51098">
        <ele>65.3</ele>
        <time>2020-02-19T15:45:19Z</time>
      </trkpt>
      <trkpt lat="43.43154" lon="6.51089">
        <ele>65.1</ele>
        <time>2020-02-19T15:45:24Z</time>
      </trkpt>
      <trkpt lat="43.43158" lon="6.51079">
        <ele>64.7</ele>
        <time>2020-02-19T15:45:29Z</time>
      </trkpt>
      <trkpt lat="43.4316" lon="6.51077">
        <ele>64.6</ele>
        <time>2020-02-19T15:45:30Z</time>
      </trkpt>
      <trkpt lat="43.43169" lon="6.51062">
        <ele>63.2</ele>
        <time>2020-02-19T15:45:38Z</time>
      </trkpt>
      <trkpt lat="43.43173" lon="6.51052">
        <ele>62.6</ele>
        <time>2020-02-19T15:45:44Z</time>
      </trkpt>
      <trkpt lat="43.4318" lon="6.51046">
        <ele>61.5</ele>
        <time>2020-02-19T15:45:56Z</time>
      </trkpt>
      <trkpt lat="43.43189" lon="6.51044">
        <ele>60.8</ele>
        <time>2020-02-19T15:46:07Z</time>
      </trkpt>
      <trkpt lat="43.43198" lon="6.51043">
        <ele>60</ele>
        <time>2020-02-19T15:46:23Z</time>
      </trkpt>
      <trkpt lat="43.43206" lon="6.51044">
        <ele>59.7</ele>
        <time>2020-02-19T15:46:34Z</time>
      </trkpt>
      <trkpt lat="43.43207" lon="6.51044">
        <ele>59.6</ele>
        <time>2020-02-19T15:46:35Z</time>
      </trkpt>
      <trkpt lat="43.43224" lon="6.51045">
        <ele>59.4</ele>
        <time>2020-02-19T15:46:53Z</time>
      </trkpt>
      <trkpt lat="43.43232" lon="6.51047">
        <ele>59.4</ele>
        <time>2020-02-19T15:47:02Z</time>
      </trkpt>
      <trkpt lat="43.43241" lon="6.51048">
        <ele>59.5</ele>
        <time>2020-02-19T15:47:14Z</time>
      </trkpt>
      <trkpt lat="43.43249" lon="6.51048">
        <ele>58.9</ele>
        <time>2020-02-19T15:47:22Z</time>
      </trkpt>
      <trkpt lat="43.43258" lon="6.51049">
        <ele>59.1</ele>
        <time>2020-02-19T15:47:32Z</time>
      </trkpt>
      <trkpt lat="43.43267" lon="6.5105">
        <ele>58.8</ele>
        <time>2020-02-19T15:47:42Z</time>
      </trkpt>
      <trkpt lat="43.43268" lon="6.5105">
        <ele>58.9</ele>
        <time>2020-02-19T15:47:43Z</time>
      </trkpt>
      <trkpt lat="43.43283" lon="6.51052">
        <ele>58.9</ele>
        <time>2020-02-19T15:48:01Z</time>
      </trkpt>
      <trkpt lat="43.43291" lon="6.51049">
        <ele>59.2</ele>
        <time>2020-02-19T15:48:07Z</time>
      </trkpt>
      <trkpt lat="43.43299" lon="6.51045">
        <ele>59.5</ele>
        <time>2020-02-19T15:48:14Z</time>
      </trkpt>
      <trkpt lat="43.43306" lon="6.51039">
        <ele>59.5</ele>
        <time>2020-02-19T15:48:20Z</time>
      </trkpt>
      <trkpt lat="43.43315" lon="6.51036">
        <ele>59.6</ele>
        <time>2020-02-19T15:48:29Z</time>
      </trkpt>
      <trkpt lat="43.43323" lon="6.51032">
        <ele>59.7</ele>
        <time>2020-02-19T15:48:37Z</time>
      </trkpt>
      <trkpt lat="43.43332" lon="6.51028">
        <ele>59.7</ele>
        <time>2020-02-19T15:48:44Z</time>
      </trkpt>
      <trkpt lat="43.43333" lon="6.51027">
        <ele>59.8</ele>
        <time>2020-02-19T15:48:45Z</time>
      </trkpt>
      <trkpt lat="43.43348" lon="6.51027">
        <ele>59.5</ele>
        <time>2020-02-19T15:48:59Z</time>
      </trkpt>
      <trkpt lat="43.43357" lon="6.51028">
        <ele>59.5</ele>
        <time>2020-02-19T15:49:07Z</time>
      </trkpt>
      <trkpt lat="43.43365" lon="6.51034">
        <ele>59.7</ele>
        <time>2020-02-19T15:49:15Z</time>
      </trkpt>
      <trkpt lat="43.43373" lon="6.51036">
        <ele>59.7</ele>
        <time>2020-02-19T15:49:23Z</time>
      </trkpt>
      <trkpt lat="43.43381" lon="6.51033">
        <ele>59.9</ele>
        <time>2020-02-19T15:49:30Z</time>
      </trkpt>
      <trkpt lat="43.4339" lon="6.51034">
        <ele>60.7</ele>
        <time>2020-02-19T15:49:39Z</time>
      </trkpt>
      <trkpt lat="43.43399" lon="6.51037">
        <ele>61</ele>
        <time>2020-02-19T15:49:48Z</time>
      </trkpt>
      <trkpt lat="43.434" lon="6.51037">
        <ele>61</ele>
        <time>2020-02-19T15:49:49Z</time>
      </trkpt>
      <trkpt lat="43.43415" lon="6.51046">
        <ele>61.4</ele>
        <time>2020-02-19T15:50:04Z</time>
      </trkpt>
      <trkpt lat="43.43423" lon="6.51049">
        <ele>61.3</ele>
        <time>2020-02-19T15:50:12Z</time>
      </trkpt>
      <trkpt lat="43.43431" lon="6.51054">
        <ele>61.1</ele>
        <time>2020-02-19T15:51:59Z</time>
      </trkpt>
      <trkpt lat="43.43431" lon="6.51054">
        <ele>61</ele>
        <time>2020-02-19T15:52:00Z</time>
      </trkpt>
    </trkseg>
  </trk>
</gpx>